Data for 08/15/2009

Time Sea-Level Adjusted Pressure Absolute Pressure Temperature Relative Humidity Dew Point Precipitation   
(mb) (inHg) (mb) (inHg) (C) (F) (%) (C) (F) (mm) (in)
00:01 1021 30.15 850 25.1 8.8 47.9 90 7.3 45.2 9.09 0.358
00:02 1021 30.15 850 25.1 8.8 47.9 90 7.3 45.2 9.1 0.358
00:03 1021 30.15 850 25.1 8.8 47.9 90 7.3 45.1 9.09 0.358
00:04 1021 30.15 850 25.1 8.8 47.9 90 7.3 45.2 9.1 0.358
00:05 1021 30.15 850 25.1 8.8 47.9 91 7.4 45.3 9.09 0.358
00:06 1021 30.15 850 25.1 8.8 47.9 91 7.4 45.3 9.13 0.359
00:07 1021 30.15 850 25.1 8.8 47.9 91 7.4 45.3 9.08 0.357
00:08 1021 30.15 850 25.1 8.8 47.8 91 7.4 45.3 9.14 0.36
00:09 1021 30.15 850 25.1 8.8 47.9 91 7.4 45.3 9.09 0.358
00:10 1021 30.15 850 25.1 8.8 47.9 91 7.4 45.3 9.11 0.359
00:11 1021 30.15 850 25.1 8.8 47.8 91 7.4 45.3 9.09 0.358
00:12 1021 30.15 850 25.1 8.8 47.8 91 7.4 45.3 9.1 0.358
00:13 1021 30.15 850 25.1 8.8 47.8 91 7.4 45.3 9.09 0.358
00:14 1021 30.15 850 25.1 8.7 47.7 91 7.4 45.2 9.06 0.357
00:15 1021 30.15 850 25.1 8.8 47.8 91 7.3 45.2 9.02 0.355
00:16 1021 30.15 850 25.1 8.8 47.8 91 7.3 45.2 9.09 0.358
00:17 1021 30.15 850 25.1 8.8 47.8 91 7.4 45.2 9.08 0.357
00:18 1021 30.15 850 25.1 8.8 47.8 91 7.4 45.3 9.09 0.358
00:19 1021 30.15 850 25.1 8.7 47.7 91 7.4 45.3 9.08 0.357
00:20 1021 30.15 850 25.1 8.7 47.6 92 7.4 45.4 9.07 0.357
00:21 1021 30.15 850 25.1 8.7 47.6 92 7.5 45.4 9.05 0.356
00:22 1021 30.15 850 25.1 8.7 47.6 92 7.5 45.4 9.01 0.355
00:23 1021 30.15 850 25.1 8.7 47.6 92 7.4 45.4 9.03 0.356
00:24 1021 30.15 850 25.1 8.7 47.6 92 7.4 45.3 9 0.354
00:25 1021 30.15 850 25.1 8.7 47.6 92 7.4 45.3 9.01 0.355
00:26 1021 30.15 850 25.1 8.7 47.6 92 7.4 45.4 9.06 0.357
00:27 1021 30.15 850 25.1 8.7 47.6 92 7.5 45.4 9.01 0.355
00:28 1021 30.15 850 25.1 8.6 47.6 92 7.4 45.3 8.96 0.353
00:29 1021 30.15 850 25.1 8.6 47.5 92 7.4 45.3 8.93 0.352
00:30 1021 30.15 850 25.1 8.6 47.5 92 7.4 45.3 8.91 0.351
00:31 1021 30.15 850 25.1 8.6 47.5 92 7.4 45.3 8.92 0.351
00:32 1021 30.15 850 25.1 8.6 47.5 92 7.4 45.3 8.94 0.352
00:33 1021 30.15 850 25.1 8.6 47.5 92 7.4 45.3 8.97 0.353
00:34 1021 30.15 850 25.1 8.6 47.5 92 7.4 45.3 8.94 0.352
00:35 1021 30.15 850 25.1 8.6 47.5 92 7.4 45.3 8.93 0.352
00:36 1021 30.15 850 25.1 8.6 47.6 92 7.4 45.4 8.9 0.35
00:37 1021 30.15 850 25.1 8.6 47.5 92 7.4 45.3 8.93 0.352
00:38 1021 30.15 850 25.1 8.6 47.5 92 7.4 45.3 8.89 0.35
00:39 1021 30.15 850 25.1 8.7 47.6 92 7.4 45.4 8.93 0.352
00:40 1021 30.15 850 25.1 8.7 47.6 92 7.4 45.4 8.95 0.352
00:41 1021 30.15 850 25.1 8.6 47.6 92 7.4 45.4 8.97 0.353
00:42 1021 30.15 850 25.1 8.7 47.6 92 7.5 45.4 8.97 0.353
00:43 1021 30.15 850 25.1 8.7 47.6 92 7.5 45.5 8.94 0.352
00:44 1021 30.15 850 25.1 8.6 47.5 92 7.4 45.4 8.94 0.352
00:45 1021 30.15 850 25.1 8.6 47.5 92 7.5 45.4 8.92 0.351
00:46 1021 30.15 850 25.1 8.6 47.5 92 7.4 45.4 8.93 0.352
00:47 1021 30.15 850 25.1 8.7 47.6 92 7.4 45.4 8.94 0.352
00:48 1021 30.15 850 25.1 8.7 47.6 92 7.4 45.3 8.98 0.354
00:49 1021 30.15 850 25.1 8.7 47.7 92 7.5 45.4 8.98 0.354
00:50 1021 30.15 850 25.1 8.7 47.6 92 7.4 45.4 8.97 0.353
00:51 1021 30.15 850 25.1 8.7 47.6 92 7.4 45.3 8.98 0.354
00:52 1021 30.15 850 25.1 8.7 47.6 92 7.4 45.4 8.99 0.354
00:53 1021 30.15 850 25.1 8.7 47.7 91 7.4 45.3 8.96 0.353
00:54 1021 30.15 850 25.1 8.7 47.7 91 7.4 45.3 9 0.354
00:55 1021 30.15 850 25.1 8.7 47.7 91 7.4 45.3 9 0.354
00:56 1021 30.15 850 25.1 8.7 47.7 91 7.4 45.3 8.97 0.353
00:57 1021 30.15 850 25.1 8.7 47.7 91 7.3 45.2 9.01 0.355
00:58 1021 30.15 850 25.1 8.7 47.6 91 7.3 45.1 9.03 0.356
00:59 1021 30.15 850 25.1 8.7 47.7 90 7.3 45.1 8.99 0.354
01:00 1021 30.15 850 25.1 8.7 47.7 90 7.2 44.9 9.03 0.356
01:01 1021 30.15 850 25.1 8.8 47.8 90 7.2 44.9 8.99 0.354
01:02 1021 30.15 850 25.1 8.7 47.7 90 7.1 44.8 8.95 0.352
01:03 1021 30.15 850 25.1 8.7 47.7 90 7.1 44.8 8.95 0.352
01:04 1021 30.15 850 25.1 8.7 47.7 90 7.2 44.9 8.95 0.352
01:05 1021 30.15 850 25.1 8.6 47.6 90 7.1 44.8 8.93 0.352
01:06 1021 30.15 850 25.1 8.6 47.5 90 7.1 44.8 8.88 0.35
01:07 1021 30.15 850 25.1 8.6 47.5 91 7.2 45 8.85 0.348
01:08 1021 30.15 850 25.1 8.5 47.3 91 7.2 44.9 8.84 0.348
01:09 1021 30.15 850 25.1 8.5 47.3 91 7.1 44.8 8.81 0.347
01:10 1021 30.15 850 25.1 8.5 47.2 91 7.1 44.8 8.77 0.345
01:11 1021 30.15 850 25.1 8.5 47.2 90 6.9 44.5 8.81 0.347
01:12 1021 30.15 850 25.1 8.6 47.4 90 7 44.6 8.83 0.348
01:13 1021 30.15 850 25.1 8.6 47.5 90 7.1 44.7 8.87 0.349
01:14 1021 30.15 850 25.1 8.6 47.5 89 6.9 44.5 8.89 0.35
01:15 1021 30.15 850 25.1 8.6 47.5 89 7 44.6 8.89 0.35
01:16 1021 30.15 850 25.1 8.6 47.6 89 7 44.6 8.85 0.348
01:17 1021 30.15 850 25.1 8.6 47.5 90 7 44.7 8.91 0.351
01:18 1021 30.15 850 25.1 8.6 47.4 90 7 44.6 8.88 0.35
01:19 1021 30.15 850 25.1 8.6 47.4 89 6.9 44.4 8.88 0.35
01:20 1021 30.15 850 25.1 8.6 47.5 89 6.9 44.4 8.87 0.349
01:21 1021 30.15 850 25.1 8.6 47.4 89 6.9 44.5 8.88 0.35
01:22 1021 30.15 850 25.1 8.6 47.4 89 6.9 44.4 8.86 0.349
01:23 1021 30.15 850 25.1 8.6 47.4 89 6.9 44.3 8.83 0.348
01:24 1021 30.15 850 25.1 8.6 47.4 88 6.7 44.1 8.81 0.347
01:25 1021 30.15 850 25.1 8.6 47.4 89 6.8 44.3 8.83 0.348
01:26 1021 30.15 850 25.1 8.6 47.4 88 6.8 44.2 8.84 0.348
01:27 1021 30.15 850 25.1 8.6 47.4 89 6.8 44.2 8.83 0.348
01:28 1021 30.15 850 25.1 8.6 47.4 89 6.8 44.3 8.84 0.348
01:29 1021 30.15 850 25.1 8.6 47.4 89 6.8 44.3 8.84 0.348
01:30 1021 30.15 850 25.1 8.5 47.4 89 6.8 44.2 8.82 0.347
01:31 1021 30.15 850 25.1 8.5 47.3 89 6.9 44.3 8.85 0.348
01:32 1021 30.15 850 25.1 8.5 47.3 90 6.9 44.4 8.83 0.348
01:33 1021 30.15 850 25.1 8.5 47.3 90 6.9 44.4 8.83 0.348
01:34 1021 30.15 850 25.1 8.5 47.2 90 6.9 44.3 8.77 0.345
01:35 1021 30.15 850 25.1 8.5 47.2 90 6.8 44.3 8.77 0.345
01:36 1021 30.15 850 25.1 8.4 47.2 90 6.9 44.3 8.7 0.343
01:37 1021 30.15 850 25.1 8.4 47.2 90 6.9 44.4 8.7 0.343
01:38 1021 30.15 850 25.1 8.4 47 90 6.8 44.3 8.68 0.342
01:39 1021 30.15 850 25.1 8.3 47 91 6.9 44.4 8.67 0.341
01:40 1021 30.15 850 25.1 8.3 47 91 6.9 44.3 8.67 0.341
01:41 1021 30.15 850 25.1 8.3 47 91 6.9 44.4 8.66 0.341
01:42 1021 30.15 850 25.1 8.3 47 91 6.9 44.4 8.7 0.343
01:43 1021 30.15 850 25.1 8.3 47 91 6.9 44.4 8.66 0.341
01:44 1021 30.15 850 25.1 8.4 47 91 6.9 44.5 8.68 0.342
01:45 1021 30.15 850 25.1 8.4 47 91 6.9 44.5 8.67 0.341
01:46 1021 30.15 850 25.1 8.4 47 91 6.9 44.5 8.67 0.341
01:47 1021 30.15 850 25.1 8.4 47.1 91 6.9 44.5 8.69 0.342
01:48 1021 30.15 850 25.1 8.4 47.1 91 6.9 44.5 8.7 0.343
01:49 1021 30.15 850 25.1 8.4 47.1 91 7 44.5 8.68 0.342
01:50 1021 30.15 850 25.1 8.4 47.2 90 6.9 44.5 8.7 0.343
01:51 1021 30.15 850 25.1 8.4 47.2 90 7 44.5 8.79 0.346
01:52 1021 30.15 850 25.1 8.5 47.2 90 7 44.5 8.76 0.345
01:53 1021 30.15 850 25.1 8.5 47.2 90 7 44.6 8.74 0.344
01:54 1021 30.15 850 25.1 8.5 47.2 91 7 44.6 8.73 0.344
01:55 1021 30.15 850 25.1 8.4 47.2 90 6.9 44.5 8.75 0.344
01:56 1021 30.15 850 25.1 8.5 47.2 90 7 44.6 8.78 0.346
01:57 1021 30.15 850 25.1 8.5 47.2 90 7 44.6 8.77 0.345
01:58 1021 30.15 850 25.1 8.5 47.2 90 7 44.6 8.77 0.345
01:59 1021 30.15 850 25.1 8.4 47.2 90 7 44.5 8.81 0.347
02:00 1021 30.15 850 25.1 8.5 47.3 90 6.9 44.5 8.78 0.346
02:01 1021 30.15 850 25.1 8.5 47.4 90 7 44.6 8.83 0.348
02:02 1021 30.15 850 25.1 8.5 47.4 89 6.9 44.3 8.83 0.348
02:03 1021 30.15 850 25.1 8.6 47.5 89 7 44.5 8.84 0.348
02:04 1021 30.15 850 25.1 8.6 47.6 89 6.9 44.4 8.87 0.349
02:05 1021 30.15 850 25.1 8.6 47.5 89 6.9 44.4 8.89 0.35
02:06 1021 30.15 850 25.1 8.6 47.5 89 6.8 44.3 8.89 0.35
02:07 1021 30.15 850 25.1 8.6 47.6 89 6.9 44.3 8.88 0.35
02:08 1021 30.15 850 25.1 8.6 47.6 89 6.9 44.3 8.91 0.351
02:09 1021 30.15 850 25.1 8.6 47.5 89 6.9 44.4 8.89 0.35
02:10 1021 30.15 850 25.1 8.6 47.4 89 6.8 44.3 8.92 0.351
02:11 1021 30.15 850 25.1 8.6 47.5 89 6.9 44.4 8.87 0.349
02:12 1021 30.15 850 25.1 8.6 47.4 89 6.9 44.4 8.91 0.351
02:13 1021 30.15 850 25.1 8.6 47.4 90 7 44.6 8.86 0.349
02:14 1021 30.15 850 25.1 8.5 47.4 90 7 44.5 8.87 0.349
02:15 1021 30.15 850 25.1 8.5 47.4 89 6.8 44.3 8.85 0.348
02:16 1021 30.15 850 25.1 8.6 47.5 89 6.8 44.3 8.87 0.349
02:17 1021 30.15 850 25.1 8.7 47.6 89 6.9 44.4 8.9 0.35
02:18 1021 30.15 850 25.1 8.7 47.6 88 6.9 44.3 8.94 0.352
02:19 1021 30.15 850 25.1 8.7 47.6 88 6.8 44.3 8.96 0.353
02:20 1021 30.15 850 25.1 8.7 47.7 89 6.9 44.5 8.99 0.354
02:21 1021 30.15 850 25.1 8.7 47.6 89 7 44.5 8.98 0.354
02:22 1021 30.15 850 25.1 8.6 47.5 90 7 44.6 8.96 0.353
02:23 1021 30.15 850 25.1 8.6 47.4 90 7.1 44.8 8.9 0.35
02:24 1021 30.15 850 25.1 8.5 47.3 91 7.1 44.8 8.84 0.348
02:25 1021 30.15 850 25.1 8.4 47.2 92 7.2 44.9 8.81 0.347
02:26 1021 30.15 850 25.1 8.4 47.2 91 7.1 44.7 8.8 0.346
02:27 1021 30.15 850 25.1 8.5 47.2 91 7.1 44.7 8.83 0.348
02:28 1021 30.15 850 25.1 8.5 47.3 91 7.1 44.8 8.85 0.348
02:29 1021 30.15 850 25.1 8.5 47.3 91 7.1 44.8 8.9 0.35
02:30 1021 30.15 850 25.1 8.6 47.4 90 7 44.7 8.94 0.352
02:31 1021 30.15 850 25.1 8.6 47.5 91 7.2 44.9 8.96 0.353
02:32 1021 30.15 850 25.1 8.6 47.5 90 7.1 44.8 8.94 0.352
02:33 1021 30.15 850 25.1 8.6 47.6 88 6.7 44.1 8.96 0.353
02:34 1021 30.15 850 25.1 8.8 47.9 87 6.7 44.1 9 0.354
02:35 1021 30.15 850 25.1 8.9 48.1 87 7 44.6 9.12 0.359
02:36 1021 30.15 850 25.1 9 48.1 88 7.2 44.9 9.2 0.362
02:37 1021 30.15 850 25.1 8.9 48.1 89 7.3 45.1 9.23 0.363
02:38 1021 30.15 850 25.1 8.9 47.9 89 7.2 45 9.17 0.361
02:39 1021 30.15 850 25.1 8.8 47.8 89 7.1 44.8 9.13 0.359
02:40 1021 30.15 850 25.1 8.8 47.8 89 7 44.7 9.11 0.359
02:41 1021 30.15 850 25.1 8.8 47.9 89 7.1 44.8 9.07 0.357
02:42 1021 30.15 850 25.1 8.8 47.9 89 7.1 44.7 9.14 0.36
02:43 1021 30.15 850 25.1 8.8 47.8 89 7.1 44.8 9.12 0.359
02:44 1021 30.15 850 25.1 8.8 47.8 89 7.1 44.8 9.11 0.359
02:45 1021 30.15 850 25.1 8.8 47.8 89 7.1 44.8 9.1 0.358
02:46 1021 30.15 850 25.1 8.8 47.8 89 7.1 44.7 9.08 0.357
02:47 1021 30.15 850 25.1 8.8 47.8 90 7.2 44.9 9.05 0.356
02:48 1021 30.15 850 25.1 8.8 47.8 90 7.3 45.1 9.12 0.359
02:49 1021 30.15 850 25.1 8.7 47.7 91 7.3 45.1 9.06 0.357
02:50 1021 30.15 850 25.1 8.7 47.7 91 7.4 45.3 9.12 0.359
02:51 1021 30.15 850 25.1 8.8 47.8 91 7.4 45.4 9.12 0.359
02:52 1021 30.15 850 25.1 8.7 47.7 92 7.5 45.4 9.12 0.359
02:53 1021 30.15 850 25.1 8.7 47.7 92 7.5 45.4 9.11 0.359
02:54 1021 30.15 850 25.1 8.7 47.7 92 7.4 45.4 9.06 0.357
02:55 1021 30.15 850 25.1 8.7 47.7 92 7.4 45.3 9.11 0.359
02:56 1021 30.15 850 25.1 8.7 47.7 92 7.4 45.3 9.08 0.357
02:57 1021 30.15 850 25.1 8.7 47.7 91 7.3 45.2 9.08 0.357
02:58 1021 30.15 850 25.1 8.8 47.8 91 7.4 45.3 9.07 0.357
02:59 1021 30.15 850 25.1 8.7 47.7 91 7.4 45.4 9.13 0.359
03:00 1021 30.15 850 25.1 8.7 47.7 91 7.3 45.2 9.11 0.359
03:01 1021 30.15 850 25.1 8.7 47.6 91 7.3 45.1 9.03 0.356
03:02 1021 30.15 850 25.1 8.7 47.6 91 7.2 45 9.03 0.356
03:03 1021 30.15 850 25.1 8.7 47.6 91 7.3 45.1 8.98 0.354
03:04 1021 30.15 850 25.1 8.6 47.6 91 7.2 45 9 0.354
03:05 1021 30.15 850 25.1 8.7 47.6 91 7.3 45.1 8.95 0.352
03:06 1021 30.15 850 25.1 8.7 47.6 90 7.2 44.9 8.99 0.354
03:07 1021 30.15 850 25.1 8.7 47.6 90 7.1 44.8 8.96 0.353
03:08 1021 30.15 850 25.1 8.7 47.7 90 7.2 44.9 9.01 0.355
03:09 1021 30.15 850 25.1 8.7 47.6 90 7.2 44.9 9 0.354
03:10 1021 30.15 850 25.1 8.6 47.5 90 7.1 44.9 8.92 0.351
03:11 1021 30.15 850 25.1 8.6 47.5 90 7.1 44.8 8.91 0.351
03:12 1021 30.15 850 25.1 8.5 47.3 91 7.1 44.8 8.91 0.351
03:13 1021 30.15 850 25.1 8.5 47.3 91 7.1 44.7 8.83 0.348
03:14 1021 30.15 850 25.1 8.5 47.2 91 7 44.7 8.81 0.347
03:15 1021 30.15 850 25.1 8.4 47.2 91 7 44.7 8.74 0.344
03:16 1021 30.15 850 25.1 8.4 47 91 7 44.6 8.71 0.343
03:17 1021 30.15 850 25.1 8.3 46.9 91 6.9 44.5 8.68 0.342
03:18 1021 30.15 850 25.1 8.3 46.9 91 6.9 44.4 8.64 0.34
03:19 1021 30.15 850 25.1 8.2 46.8 91 6.8 44.3 8.57 0.337
03:20 1021 30.15 850 25.1 8.1 46.7 91 6.8 44.2 8.5 0.335
03:21 1021 30.15 850 25.1 8.1 46.6 91 6.8 44.2 8.44 0.332
03:22 1021 30.15 850 25.1 8 46.4 91 6.6 43.9 8.39 0.33
03:23 1021 30.15 850 25.1 8 46.4 91 6.5 43.8 8.32 0.328
03:24 1021 30.15 850 25.1 8 46.3 90 6.5 43.7 8.26 0.325
03:25 1021 30.15 850 25.1 7.9 46.3 90 6.5 43.6 8.24 0.324
03:26 1021 30.15 850 25.1 7.9 46.2 91 6.4 43.6 8.2 0.323
03:27 1021 30.15 850 25.1 7.8 46.1 91 6.5 43.6 8.15 0.321
03:28 1021 30.15 850 25.1 7.8 46 91 6.4 43.5 8.13 0.32
03:29 1021 30.15 850 25.1 7.7 45.9 91 6.4 43.5 8.02 0.316
03:30 1021 30.15 850 25.1 7.7 45.8 92 6.4 43.6 8.01 0.315
03:31 1021 30.15 850 25.1 7.6 45.7 92 6.4 43.4 7.98 0.314
03:32 1021 30.15 850 25.1 7.5 45.6 92 6.3 43.4 7.91 0.311
03:33 1021 30.15 850 25.1 7.5 45.4 92 6.3 43.3 7.89 0.311
03:34 1021 30.15 850 25.1 7.4 45.4 92 6.3 43.3 7.86 0.309
03:35 1021 30.15 850 25.1 7.4 45.3 92 6.2 43.2 7.77 0.306
03:36 1021 30.15 850 25.1 7.4 45.2 92 6.2 43.1 7.74 0.305
03:37 1021 30.15 850 25.1 7.3 45.2 92 6.1 43 7.68 0.302
03:38 1021 30.15 850 25.1 7.3 45.1 92 6.1 43 7.62 0.3
03:39 1021 30.15 850 25.1 7.2 45 92 6 42.8 7.6 0.299
03:40 1021 30.15 850 25.1 7.1 44.8 92 5.9 42.6 7.51 0.296
03:41 1021 30.15 850 25.1 7.1 44.7 92 5.8 42.4 7.41 0.292
03:42 1021 30.15 850 25.1 6.9 44.5 91 5.6 42.1 7.3 0.287
03:43 1021 30.15 850 25.1 6.9 44.4 91 5.6 42 7.23 0.285
03:44 1021 30.15 850 25.1 6.8 44.3 91 5.5 42 7.18 0.283
03:45 1021 30.15 850 25.1 6.8 44.2 92 5.5 41.9 7.11 0.28
03:46 1021 30.15 850 25.1 6.7 44.1 92 5.5 41.8 7.06 0.278
03:47 1021 30.15 850 25.1 6.7 44 92 5.4 41.7 7.02 0.276
03:48 1021 30.15 850 25.1 6.6 43.9 92 5.4 41.7 6.946 0.273
03:49 1021 30.15 850 25.1 6.5 43.8 92 5.3 41.5 6.867 0.27
03:50 1021 30.15 850 25.1 6.5 43.7 92 5.2 41.4 6.85 0.27
03:51 1021 30.15 850 25.1 6.4 43.5 92 5.2 41.3 6.708 0.264
03:52 1021 30.15 850 25.1 6.4 43.5 92 5.2 41.4 6.748 0.266
03:53 1021 30.15 850 25.1 6.3 43.4 92 5.2 41.4 6.72 0.265
03:54 1021 30.15 850 25.1 6.3 43.3 92 5.1 41.2 6.697 0.264
03:55 1021 30.15 850 25.1 6.3 43.3 92 5.2 41.3 6.646 0.262
03:56 1021 30.15 850 25.1 6.3 43.4 92 5.2 41.3 6.669 0.263
03:57 1021 30.15 850 25.1 6.3 43.3 92 5.1 41.2 6.714 0.264
03:58 1021 30.15 850 25.1 6.3 43.4 92 5.1 41.2 6.663 0.262
03:59 1021 30.15 850 25.1 6.3 43.3 92 5.1 41.1 6.635 0.261
04:00 1021 30.15 850 25.1 6.2 43.1 92 5 41 6.567 0.259
04:01 1021 30.15 850 25.1 6.2 43.1 92 5 41 6.539 0.257
04:02 1021 30.15 850 25.1 6.1 43 92 4.9 40.9 6.482 0.255
04:03 1021 30.15 850 25.1 6.1 42.9 92 4.9 40.9 6.431 0.253
04:04 1021 30.15 850 25.1 6.1 43 93 5 40.9 6.431 0.253
04:05 1021 30.15 850 25.1 6.1 43 92 5 41 6.471 0.255
04:06 1021 30.15 850 25.1 6.2 43.1 92 5 41 6.494 0.256
04:07 1021 30.15 850 25.1 6.3 43.3 92 5.1 41.2 6.556 0.258
04:08 1021 30.15 850 25.1 6.3 43.3 92 5.2 41.3 6.595 0.26
04:09 1021 30.15 850 25.1 6.4 43.4 92 5.2 41.4 6.675 0.263
04:10 1021 30.15 850 25.1 6.5 43.6 92 5.3 41.5 6.72 0.265
04:11 1021 30.15 850 25.1 6.5 43.7 92 5.3 41.6 6.833 0.269
04:12 1021 30.15 850 25.1 6.6 43.8 92 5.4 41.7 6.912 0.272
04:13 1021 30.15 850 25.1 6.6 44 92 5.5 41.8 6.974 0.275
04:14 1021 30.15 850 25.1 6.7 44 92 5.5 41.8 7.02 0.276
04:15 1021 30.15 850 25.1 6.8 44.2 91 5.5 41.8 7.09 0.279
04:16 1021 30.15 850 25.1 6.9 44.3 91 5.4 41.8 7.14 0.281
04:17 1021 30.15 850 25.1 6.9 44.5 91 5.5 41.9 7.23 0.285
04:18 1021 30.15 850 25.1 7 44.6 91 5.6 42 7.27 0.286
04:19 1021 30.15 850 25.1 7 44.7 91 5.6 42.1 7.28 0.287
04:20 1021 30.15 850 25.1 7.1 44.7 91 5.6 42.1 7.36 0.29
04:21 1021 30.15 850 25.1 7.1 44.7 90 5.5 41.9 7.36 0.29
04:22 1021 30.15 850 25.1 7.1 44.7 89 5.4 41.7 7.36 0.29
04:23 1021 30.15 850 25.1 7.1 44.7 88 5.2 41.4 7.32 0.288
04:24 1021 30.15 850 25.1 7.1 44.8 86 4.9 40.9 7.3 0.287
04:25 1021 30.15 850 25.1 7.1 44.8 87 5.1 41.2 7.29 0.287
04:26 1021 30.15 850 25.1 7.1 44.8 87 5.1 41.2 7.36 0.29
04:27 1021 30.15 850 25.1 7.1 44.8 87 5.1 41.2 7.34 0.289
04:28 1021 30.15 850 25.1 7.1 44.8 87 5.1 41.2 7.35 0.289
04:29 1021 30.15 850 25.1 7.1 44.7 87 5.1 41.2 7.32 0.288
04:30 1021 30.15 850 25.1 7.1 44.7 87 5 41 7.28 0.287
04:31 1021 30.15 850 25.1 7 44.7 87 5 41 7.28 0.287
04:32 1021 30.15 850 25.1 7 44.7 86 4.9 40.9 7.31 0.288
04:33 1021 30.15 850 25.1 7 44.7 86 4.9 40.8 7.31 0.288
04:34 1021 30.15 850 25.1 7 44.7 86 4.9 40.8 7.28 0.287
04:35 1021 30.15 850 25.1 7 44.7 87 5 41 7.31 0.288
04:36 1021 30.15 850 25.1 7.1 44.7 87 5.1 41.1 7.29 0.287
04:37 1021 30.15 850 25.1 7 44.6 88 5.1 41.2 7.29 0.287
04:38 1021 30.15 850 25.1 7 44.6 88 5.1 41.2 7.28 0.287
04:39 1021 30.15 850 25.1 6.9 44.4 88 5.1 41.2 7.26 0.286
04:40 1021 30.15 850 25.1 6.9 44.3 88 5.1 41.1 7.21 0.284
04:41 1021 30.15 850 25.1 6.9 44.4 89 5.2 41.3 7.23 0.285
04:42 1021 30.15 850 25.1 6.8 44.3 89 5.2 41.4 7.17 0.282
04:43 1021 30.15 850 25.1 6.8 44.3 89 5.2 41.4 7.18 0.283
04:44 1021 30.15 850 25.1 6.8 44.3 90 5.3 41.5 7.15 0.281
04:45 1021 30.15 850 25.1 6.8 44.3 89 5.2 41.4 7.17 0.282
04:46 1021 30.15 850 25.1 6.8 44.3 90 5.3 41.5 7.16 0.282
04:47 1021 30.15 850 25.1 6.8 44.3 90 5.3 41.5 7.17 0.282
04:48 1021 30.15 850 25.1 6.8 44.3 90 5.2 41.4 7.17 0.282
04:49 1021 30.15 850 25.1 6.8 44.3 89 5.2 41.3 7.19 0.283
04:50 1021 30.15 850 25.1 6.8 44.3 89 5.2 41.3 7.19 0.283
04:51 1021 30.15 850 25.1 6.8 44.3 90 5.2 41.4 7.18 0.283
04:52 1021 30.15 850 25.1 6.8 44.3 88 5 41.1 7.21 0.284
04:53 1021 30.15 850 25.1 6.9 44.3 88 5.1 41.1 7.13 0.281
04:54 1021 30.15 850 25.1 6.9 44.4 88 5.1 41.1 7.17 0.282
04:55 1021 30.15 850 25.1 6.9 44.4 88 5.1 41.2 7.21 0.284
04:56 1021 30.15 850 25.1 6.9 44.4 88 5.1 41.2 7.19 0.283
04:57 1021 30.15 850 25.1 6.9 44.5 89 5.2 41.3 7.23 0.285
04:58 1021 30.15 850 25.1 6.9 44.4 89 5.1 41.2 7.23 0.285
04:59 1021 30.15 850 25.1 6.9 44.4 88 5 41.1 7.21 0.284
05:00 1021 30.15 850 25.1 6.9 44.3 88 5.1 41.1 7.18 0.283
05:01 1021 30.15 850 25.1 6.9 44.4 88 5 41.1 7.22 0.284
05:02 1021 30.15 850 25.1 6.9 44.4 88 5.1 41.1 7.2 0.283
05:03 1021 30.15 850 25.1 6.9 44.4 88 5.1 41.2 7.17 0.282
05:04 1021 30.15 850 25.1 6.9 44.4 88 5.1 41.2 7.21 0.284
05:05 1021 30.15 850 25.1 6.9 44.4 89 5.2 41.3 7.2 0.283
05:06 1021 30.15 850 25.1 6.9 44.3 88 5.1 41.1 7.21 0.284
05:07 1021 30.15 850 25.1 6.9 44.4 88 5.1 41.2 7.2 0.283
05:08 1021 30.15 850 25.1 6.9 44.4 88 5.1 41.2 7.19 0.283
05:09 1021 30.15 850 25.1 6.8 44.3 89 5.1 41.2 7.2 0.283
05:10 1021 30.15 850 25.1 6.9 44.4 88 5.1 41.2 7.19 0.283
05:11 1021 30.15 850 25.1 6.9 44.3 89 5.1 41.2 7.19 0.283
05:12 1021 30.15 850 25.1 6.8 44.3 89 5.1 41.2 7.17 0.282
05:13 1021 30.15 850 25.1 6.8 44.3 89 5.1 41.2 7.16 0.282
05:14 1021 30.15 850 25.1 6.9 44.3 89 5.1 41.2 7.17 0.282
05:15 1021 30.15 850 25.1 6.9 44.4 89 5.1 41.2 7.22 0.284
05:16 1021 30.15 850 25.1 6.9 44.4 89 5.2 41.3 7.2 0.283
05:17 1021 30.15 850 25.1 6.9 44.3 89 5.2 41.3 7.22 0.284
05:18 1021 30.15 850 25.1 6.9 44.3 89 5.2 41.4 7.23 0.285
05:19 1021 30.15 850 25.1 6.9 44.3 89 5.2 41.4 7.17 0.282
05:20 1021 30.15 850 25.1 6.9 44.3 90 5.3 41.5 7.19 0.283
05:21 1021 30.15 850 25.1 6.8 44.3 89 5.2 41.3 7.19 0.283
05:22 1021 30.15 850 25.1 6.8 44.3 89 5.1 41.2 7.18 0.283
05:23 1021 30.15 850 25.1 6.9 44.4 88 5.1 41.2 7.19 0.283
05:24 1021 30.15 850 25.1 6.9 44.4 88 5 41 7.18 0.283
05:25 1021 30.15 850 25.1 6.9 44.5 88 5.1 41.1 7.24 0.285
05:26 1021 30.15 850 25.1 7 44.5 88 5.1 41.2 7.23 0.285
05:27 1021 30.15 850 25.1 7 44.5 86 4.8 40.7 7.29 0.287
05:28 1021 30.15 850 25.1 7 44.6 85 4.7 40.4 7.28 0.287
05:29 1021 30.15 850 25.1 7.1 44.7 86 4.9 40.9 7.32 0.288
05:30 1021 30.15 850 25.1 7.1 44.7 87 5 41 7.35 0.289
05:31 1021 30.15 850 25.1 7.1 44.7 86 4.8 40.7 7.36 0.29
05:32 1021 30.15 850 25.1 7.1 44.7 85 4.7 40.5 7.32 0.288
05:33 1021 30.15 850 25.1 7.1 44.7 86 4.8 40.7 7.35 0.289
05:34 1021 30.15 850 25.1 7.1 44.8 86 4.9 40.9 7.37 0.29
05:35 1021 30.15 850 25.1 7.1 44.8 86 4.8 40.7 7.41 0.292
05:36 1021 30.15 850 25.1 7.1 44.7 86 4.9 40.7 7.39 0.291
05:37 1021 30.15 850 25.1 7.1 44.7 86 4.8 40.7 7.42 0.292
05:38 1021 30.15 850 25.1 7.1 44.8 86 5 41 7.4 0.291
05:39 1021 30.15 850 25.1 7.1 44.8 87 5.1 41.3 7.43 0.293
05:40 1021 30.15 850 25.1 7.1 44.7 88 5.2 41.4 7.42 0.292
05:41 1021 30.15 850 25.1 7 44.6 88 5.2 41.3 7.38 0.291
05:42 1021 30.15 850 25.1 7 44.5 88 5.1 41.2 7.34 0.289
05:43 1021 30.15 850 25.1 7 44.6 88 5.2 41.3 7.36 0.29
05:44 1021 30.15 850 25.1 7 44.5 88 5.2 41.3 7.31 0.288
05:45 1021 30.15 850 25.1 6.9 44.5 88 5.1 41.1 7.29 0.287
05:46 1021 30.15 850 25.1 6.9 44.5 88 5.1 41.1 7.27 0.286
05:47 1021 30.15 850 25.1 6.9 44.5 88 5.1 41.1 7.26 0.286
05:48 1021 30.15 850 25.1 6.9 44.3 88 5 41 7.25 0.285
05:49 1021 30.15 850 25.1 6.9 44.4 87 4.9 40.9 7.22 0.284
05:50 1021 30.15 850 25.1 6.8 44.2 88 4.9 40.8 7.16 0.282
05:51 1021 30.15 850 25.1 6.8 44.2 88 4.9 40.8 7.15 0.281
05:52 1021 30.15 850 25.1 6.8 44.2 88 4.9 40.9 7.14 0.281
05:53 1021 30.15 850 25.1 6.7 44.1 88 4.9 40.9 7.09 0.279
05:54 1021 30.15 850 25.1 6.7 44 88 4.9 40.8 7.08 0.279
05:55 1021 30.15 850 25.1 6.7 44.1 89 5 41 7.08 0.279
05:56 1021 30.15 850 25.1 6.7 44 89 4.9 40.9 7.06 0.278
05:57 1021 30.15 850 25.1 6.6 43.9 88 4.8 40.7 7 0.276
05:58 1021 30.15 850 25.1 6.6 43.9 89 4.8 40.7 6.987 0.275
05:59 1021 30.15 850 25.1 6.6 43.8 88 4.8 40.6 6.942 0.273
06:00 1021 30.15 850 25.1 6.5 43.7 88 4.7 40.5 6.896 0.271
06:01 1021 30.15 850 25.1 6.5 43.7 89 4.7 40.5 6.874 0.271
06:02 1021 30.15 850 25.1 6.4 43.6 89 4.7 40.4 6.823 0.269
06:03 1021 30.15 850 25.1 6.4 43.6 89 4.7 40.4 6.8 0.268
06:04 1021 30.15 850 25.1 6.4 43.4 89 4.6 40.4 6.743 0.265
06:05 1021 30.15 850 25.1 6.3 43.3 89 4.6 40.3 6.693 0.264
06:06 1021 30.15 850 25.1 6.2 43.2 89 4.6 40.2 6.664 0.262
06:07 1021 30.15 850 25.1 6.2 43.2 89 4.6 40.2 6.619 0.261
06:08 1021 30.15 850 25.1 6.2 43.2 89 4.6 40.2 6.596 0.26
06:09 1021 30.15 850 25.1 6.1 43 89 4.5 40.1 6.579 0.259
06:10 1021 30.15 850 25.1 6.1 43 89 4.5 40.1 6.5 0.256
06:11 1021 30.15 850 25.1 6.1 42.9 90 4.5 40.1 6.489 0.255
06:12 1021 30.15 850 25.1 6 42.7 90 4.4 39.9 6.426 0.253
06:13 1021 30.15 850 25.1 5.9 42.7 90 4.4 39.9 6.33 0.249
06:14 1021 30.15 850 25.1 5.9 42.6 90 4.4 39.8 6.319 0.249
06:15 1021 30.15 850 25.1 5.8 42.5 90 4.4 39.8 6.239 0.246
06:16 1021 30.15 850 25.1 5.8 42.5 90 4.4 39.9 6.228 0.245
06:17 1021 30.15 850 25.1 5.8 42.4 90 4.3 39.8 6.155 0.242
06:18 1021 30.15 850 25.1 5.8 42.4 91 4.4 39.8 6.196 0.244
06:19 1021 30.15 850 25.1 5.8 42.4 90 4.3 39.8 6.122 0.241
06:20 1021 30.15 850 25.1 5.8 42.4 91 4.4 39.8 6.196 0.244
06:21 1021 30.15 850 25.1 5.8 42.4 91 4.3 39.8 6.18 0.243
06:22 1021 30.15 850 25.1 5.8 42.4 91 4.4 39.9 6.163 0.243
06:23 1021 30.15 850 25.1 5.7 42.3 91 4.4 39.8 6.101 0.24
06:24 1021 30.15 850 25.1 5.7 42.3 91 4.4 39.9 6.124 0.241
06:25 1021 30.15 850 25.1 5.7 42.3 91 4.4 39.9 6.079 0.239
06:26 1021 30.15 850 25.1 5.7 42.2 91 4.3 39.8 6.091 0.24
06:27 1021 30.15 850 25.1 5.6 42.2 91 4.3 39.8 6.018 0.237
06:28 1021 30.15 850 25.1 5.6 42.1 91 4.3 39.8 6.012 0.237
06:29 1021 30.15 850 25.1 5.6 42.1 91 4.3 39.8 6.035 0.238
06:30 1021 30.15 850 25.1 5.6 42.1 91 4.3 39.8 6.031 0.237
06:31 1021 30.15 850 25.1 5.6 42.1 91 4.3 39.8 6.014 0.237
06:32 1021 30.15 850 25.1 5.6 42.1 91 4.3 39.8 6.014 0.237
06:33 1021 30.15 850 25.1 5.6 42.1 91 4.3 39.7 6.026 0.237
06:34 1021 30.15 850 25.1 5.6 42.2 91 4.3 39.8 6.031 0.237
06:35 1021 30.15 850 25.1 5.6 42.2 91 4.3 39.8 6.055 0.238
06:36 1021 30.15 850 25.1 5.7 42.2 91 4.3 39.8 6.022 0.237
06:37 1021 30.15 850 25.1 5.7 42.3 91 4.4 39.9 6.084 0.24
06:38 1021 30.15 850 25.1 5.7 42.3 91 4.4 39.9 6.078 0.239
06:39 1021 30.15 850 25.1 5.7 42.3 92 4.4 40 6.072 0.239
06:40 1021 30.15 850 25.1 5.7 42.3 92 4.4 40 6.095 0.24
06:41 1021 30.15 850 25.1 5.7 42.3 92 4.5 40 6.096 0.24
06:42 1021 30.15 850 25.1 5.8 42.4 92 4.5 40.1 6.108 0.24
06:43 1021 30.15 850 25.1 5.7 42.3 92 4.5 40.1 6.136 0.242
06:44 1021 30.15 850 25.1 5.8 42.4 92 4.6 40.3 6.182 0.243
06:45 1021 30.15 850 25.1 5.8 42.5 92 4.6 40.4 6.211 0.245
06:46 1021 30.15 850 25.1 5.9 42.6 92 4.7 40.4 6.233 0.245
06:47 1021 30.15 850 25.1 5.9 42.6 92 4.8 40.6 6.295 0.248
06:48 1021 30.15 850 25.1 6 42.7 93 4.8 40.7 6.351 0.25
06:49 1021 30.15 850 25.1 5.9 42.7 93 4.8 40.7 6.397 0.252
06:50 1021 30.15 850 25.1 6 42.8 93 5 40.9 6.453 0.254
06:51 1021 30.15 850 25.1 6.1 42.9 93 5 41 6.487 0.255
06:52 1021 30.15 850 25.1 6.1 43 93 5.1 41.1 6.555 0.258
06:53 1021 30.15 850 25.1 6.1 43.1 93 5.1 41.2 6.578 0.259
06:54 1021 30.15 850 25.1 6.2 43.2 93 5.2 41.3 6.635 0.261
06:55 1021 30.15 850 25.1 6.2 43.2 93 5.2 41.3 6.641 0.261
06:56 1021 30.15 850 25.1 6.3 43.3 93 5.2 41.4 6.704 0.264
06:57 1021 30.15 850 25.1 6.3 43.3 93 5.3 41.5 6.743 0.265
06:58 1021 30.15 850 25.1 6.4 43.5 93 5.4 41.7 6.777 0.267
06:59 1021 30.15 850 25.1 6.4 43.6 93 5.4 41.7 6.835 0.269
07:00 1021 30.15 850 25.1 6.5 43.7 93 5.5 41.9 6.891 0.271
07:01 1021 30.15 850 25.1 6.5 43.8 93 5.5 41.9 6.959 0.274
07:02 1021 30.15 850 25.1 6.6 43.9 92 5.4 41.6 6.977 0.275
07:03 1021 30.15 850 25.1 6.6 44 91 5.3 41.6 7 0.276
07:04 1021 30.15 850 25.1 6.7 44 90 5.2 41.4 6.994 0.275
07:05 1021 30.15 850 25.1 6.8 44.2 91 5.4 41.7 7.08 0.279
07:06 1021 30.15 850 25.1 6.8 44.3 91 5.5 41.9 7.15 0.281
07:07 1021 30.15 850 25.1 6.9 44.3 91 5.5 42 7.21 0.284
07:08 1021 30.15 850 25.1 6.9 44.4 92 5.6 42.2 7.31 0.288
07:09 1021 30.15 850 25.1 6.9 44.5 90 5.5 41.9 7.35 0.289
07:10 1021 30.15 850 25.1 7 44.6 90 5.4 41.8 7.36 0.29
07:11 1021 30.15 850 25.1 7.1 44.8 90 5.6 42 7.53 0.296
07:12 1021 30.15 850 25.1 7.2 45 90 5.6 42.2 7.6 0.299
07:13 1021 30.15 850 25.1 7.3 45.1 89 5.6 42.1 7.68 0.302
07:14 1021 30.15 850 25.1 7.4 45.2 90 5.7 42.3 7.76 0.306
07:15 1021 30.15 850 25.1 7.4 45.4 88 5.6 42 7.86 0.309
07:16 1021 30.15 850 25.1 7.5 45.5 88 5.7 42.2 7.92 0.312
07:17 1021 30.15 850 25.1 7.5 45.6 88 5.7 42.2 8 0.315
07:18 1021 30.15 850 25.1 7.6 45.6 86 5.4 41.7 7.98 0.314
07:19 1021 30.15 850 25.1 7.6 45.7 87 5.6 42.1 7.97 0.314
07:20 1021 30.15 850 25.1 7.7 45.8 87 5.6 42 8.03 0.316
07:21 1021 30.15 850 25.1 7.7 45.8 87 5.6 42 8.08 0.318
07:22 1021 30.15 850 25.1 7.7 45.9 86 5.5 42 8.1 0.319
07:23 1021 30.15 850 25.1 7.8 46 87 5.7 42.3 8.19 0.322
07:24 1021 30.15 850 25.1 7.8 46.1 87 5.7 42.3 8.26 0.325
07:25 1021 30.15 850 25.1 7.9 46.2 86 5.7 42.3 8.36 0.329
07:26 1021 30.15 850 25.1 8 46.3 87 5.9 42.7 8.43 0.332
07:27 1021 30.15 850 25.1 8 46.4 86 5.7 42.3 8.44 0.332
07:28 1021 30.15 850 25.1 8 46.5 86 5.8 42.4 8.43 0.332
07:29 1021 30.15 850 25.1 8.1 46.5 84 5.5 41.8 8.43 0.332
07:30 1021 30.15 850 25.1 8 46.4 85 5.6 42.2 8.36 0.329
07:31 1021 30.15 850 25.1 8 46.3 86 5.8 42.5 8.39 0.33
07:32 1021 30.15 850 25.1 8 46.4 87 5.9 42.6 8.44 0.332
07:33 1021 30.15 850 25.1 8 46.4 87 5.9 42.6 8.47 0.333
07:34 1021 30.15 850 25.1 8 46.5 86 5.9 42.6 8.48 0.334
07:35 1021 30.15 850 25.1 8.1 46.6 86 5.9 42.6 8.56 0.337
07:36 1021 30.15 850 25.1 8.2 46.7 87 6.1 43 8.67 0.341
07:37 1021 30.15 850 25.1 8.3 46.9 86 6.1 43 8.73 0.344
07:38 1021 30.15 850 25.1 8.3 46.9 82 5.5 41.8 8.77 0.345
07:39 1021 30.15 850 25.1 8.3 47 80 5.2 41.3 8.71 0.343
07:40 1021 30.15 850 25.1 8.4 47.1 81 5.3 41.5 8.72 0.343
07:41 1021 30.15 850 25.1 8.4 47 79 4.9 40.7 8.64 0.34
07:42 1021 30.15 850 25.1 8.3 47 80 5.2 41.3 8.66 0.341
07:43 1021 30.15 850 25.1 8.3 47 80 5.1 41.2 8.7 0.343
07:44 1021 30.15 850 25.1 8.3 46.9 79 4.9 40.8 8.62 0.339
07:45 1021 30.15 850 25.1 8.3 46.9 81 5.3 41.5 8.63 0.34
07:46 1021 30.15 850 25.1 8.3 47 82 5.5 41.9 8.72 0.343
07:47 1021 30.15 850 25.1 8.4 47.1 84 5.9 42.6 8.86 0.349
07:48 1021 30.15 850 25.1 8.5 47.3 83 5.9 42.6 8.99 0.354
07:49 1021 30.15 850 25.1 8.6 47.4 80 5.4 41.7 9.09 0.358
07:50 1021 30.15 850 25.1 8.7 47.6 76 4.6 40.3 9.09 0.358
07:51 1021 30.15 850 25.1 8.6 47.6 76 4.7 40.4 8.98 0.354
07:52 1021 30.15 850 25.1 8.6 47.5 70 3.5 38.4 8.87 0.349
07:53 1021 30.15 850 25.1 8.5 47.3 71 3.6 38.5 8.77 0.345
07:54 1021 30.15 850 25.1 8.5 47.3 71 3.6 38.4 8.78 0.346
07:55 1021 30.15 850 25.1 8.6 47.4 67 2.7 36.9 8.87 0.349
07:56 1021 30.15 850 25.1 8.7 47.6 74 4.2 39.6 9 0.354
07:57 1021 30.15 850 25.1 8.8 47.8 71 3.8 38.9 9.19 0.362
07:58 1021 30.15 850 25.1 8.8 47.9 71 3.9 39 9.24 0.364
07:59 1021 30.15 850 25.1 8.9 48 73 4.4 39.9 9.33 0.367
08:00 1021 30.15 850 25.1 8.9 48.1 71 4 39.2 9.44 0.372
08:01 1021 30.15 850 25.1 9 48.2 72 4.3 39.7 9.45 0.372
08:02 1021 30.15 850 25.1 9 48.2 74 4.6 40.3 9.45 0.372
08:03 1021 30.15 850 25.1 8.9 48.1 74 4.6 40.3 9.41 0.37
08:04 1021 30.15 850 25.1 8.9 48 69 3.5 38.3 9.27 0.365
08:05 1021 30.15 850 25.1 8.8 47.8 69 3.4 38.1 9.13 0.359
08:06 1021 30.15 850 25.1 8.7 47.7 73 4.1 39.5 9.09 0.358
08:07 1021 30.15 850 25.1 8.8 47.8 71 3.8 38.8 9.12 0.359
08:08 1021 30.15 850 25.1 8.8 47.8 75 4.7 40.4 9.17 0.361
08:09 1021 30.15 850 25.1 8.8 47.9 74 4.5 40.1 9.29 0.366
08:10 1021 30.15 850 25.1 8.9 48 71 4 39.3 9.34 0.368
08:11 1021 30.15 850 25.1 8.9 48 70 3.7 38.7 9.32 0.367
08:12 1021 30.15 850 25.1 8.9 48 72 4.2 39.6 9.28 0.365
08:13 1021 30.15 850 25.1 8.8 47.9 73 4.3 39.7 9.28 0.365
08:14 1021 30.15 850 25.1 8.8 47.9 74 4.5 40.2 9.24 0.364
08:15 1021 30.15 850 25.1 8.8 47.9 75 4.7 40.4 9.34 0.368
08:16 1021 30.15 850 25.1 8.9 48 75 4.7 40.4 9.34 0.368
08:17 1021 30.15 850 25.1 8.9 48 71 4 39.2 9.28 0.365
08:18 1021 30.15 850 25.1 8.8 47.9 69 3.5 38.4 9.24 0.364
08:19 1021 30.15 850 25.1 8.8 47.8 69 3.4 38.1 9.14 0.36
08:20 1021 30.15 850 25.1 8.7 47.7 73 4.1 39.5 9.12 0.359
08:21 1021 30.15 850 25.1 8.7 47.6 71 3.8 38.8 9.17 0.361
08:22 1021 30.15 850 25.1 8.7 47.6 70 3.6 38.5 9.09 0.358
08:23 1021 30.15 850 25.1 8.7 47.6 69 3.4 38.1 9.04 0.356
08:24 1021 30.15 850 25.1 8.6 47.6 72 3.9 39 9.03 0.356
08:25 1021 30.15 850 25.1 8.6 47.5 72 3.9 38.9 9.11 0.359
08:26 1021 30.15 850 25.1 8.6 47.5 72 3.9 39 9.08 0.357
08:27 1021 30.15 850 25.1 8.6 47.5 73 4 39.3 9.07 0.357
08:28 1021 30.15 850 25.1 8.6 47.5 75 4.4 40 9.08 0.357
08:29 1021 30.15 850 25.1 8.6 47.5 76 4.7 40.5 9.12 0.359
08:30 1021 30.15 850 25.1 8.6 47.5 77 4.9 40.8 9.15 0.36
08:31 1021 30.15 850 25.1 8.7 47.6 79 5.2 41.4 9.18 0.361
08:32 1021 30.15 850 25.1 8.8 47.8 77 4.9 40.8 9.27 0.365
08:33 1021 30.15 850 25.1 8.8 47.9 79 5.5 41.8 9.29 0.366
08:34 1021 30.15 850 25.1 8.9 48 75 4.7 40.5 9.4 0.37
08:35 1021 30.15 850 25.1 8.9 48 76 5 40.9 9.36 0.369
08:36 1021 30.15 850 25.1 8.9 48.1 74 4.6 40.4 9.39 0.37
08:37 1021 30.15 850 25.1 9 48.1 74 4.7 40.4 9.43 0.371
08:38 1021 30.15 850 25.1 9 48.2 71 4.1 39.4 9.43 0.371
08:39 1021 30.15 850 25.1 9.1 48.3 73 4.4 40 9.49 0.374
08:40 1021 30.15 850 25.1 9.2 48.5 73 4.6 40.3 9.63 0.379
08:41 1021 30.15 850 25.1 9.3 48.7 72 4.5 40.1 9.73 0.383
08:42 1021 30.15 850 25.1 9.3 48.7 72 4.4 39.9 9.76 0.384
08:43 1021 30.15 850 25.1 9.4 48.9 69 4.1 39.3 9.92 0.391
08:44 1021 30.15 850 25.1 9.5 49.2 73 5 41.1 10.01 0.394
08:45 1021 30.15 850 25.1 9.8 49.6 72 4.9 40.9 10.22 0.402
08:46 1021 30.15 850 25.1 9.8 49.7 67 4 39.1 10.29 0.405
08:47 1021 30.15 850 25.1 9.8 49.6 63 3.2 37.7 10.21 0.402
08:48 1021 30.15 850 25.1 9.7 49.4 65 3.4 38.1 10.08 0.397
08:49 1021 30.15 850 25.1 9.6 49.2 66 3.7 38.6 9.95 0.392
08:50 1021 30.15 850 25.1 9.6 49.3 68 4.1 39.3 10.03 0.395
08:51 1021 30.15 850 25.1 9.6 49.3 70 4.4 39.9 10.1 0.398
08:52 1021 30.15 850 25.1 9.6 49.3 69 4.2 39.6 10.09 0.397
08:53 1021 30.15 850 25.1 9.6 49.3 69 4.2 39.5 10.12 0.398
08:54 1021 30.15 850 25.1 9.7 49.5 74 5.3 41.5 10.21 0.402
08:55 1021 30.15 850 25.1 9.9 49.7 73 5.2 41.4 10.37 0.408
08:56 1021 30.15 850 25.1 10 49.9 70 4.7 40.5 10.49 0.413
08:57 1021 30.15 850 25.1 10 49.9 70 4.8 40.6 10.44 0.411
08:58 1021 30.15 850 25.1 9.9 49.9 67 4.1 39.4 10.44 0.411
08:59 1021 30.15 850 25.1 10 50 71 5 40.9 10.44 0.411
09:00 1021 30.15 850 25.1 10 50 66 4.1 39.3 10.41 0.41
09:01 1021 30.15 850 25.1 9.9 49.8 69 4.5 40.1 10.37 0.408
09:02 1021 30.15 850 25.1 10 49.9 72 5.1 41.1 10.42 0.41
09:03 1021 30.15 850 25.1 10.1 50.1 68 4.4 40 10.52 0.414
09:04 1021 30.15 850 25.1 10.1 50.1 71 5.1 41.2 10.55 0.415
09:05 1021 30.15 850 25.1 10.2 50.3 70 4.9 40.9 10.7 0.421
09:06 1021 30.15 850 25.1 10.3 50.5 67 4.4 39.9 10.69 0.421
09:07 1021 30.15 850 25.1 10.2 50.4 65 4 39.1 10.65 0.419
09:08 1021 30.15 850 25.1 10.2 50.4 65 4.1 39.3 10.68 0.42
09:09 1021 30.15 850 25.1 10.2 50.4 67 4.4 39.9 10.72 0.422
09:10 1021 30.15 850 25.1 10.2 50.3 65 3.8 38.9 10.61 0.418
09:11 1021 30.15 850 25.1 10 50.1 67 4.3 39.7 10.44 0.411
09:12 1021 30.15 850 25.1 10 50 70 4.8 40.7 10.51 0.414
09:13 1021 30.15 850 25.1 10.1 50.2 71 5.2 41.3 10.62 0.418
09:14 1021 30.15 850 25.1 10.2 50.4 68 4.6 40.3 10.71 0.422
09:15 1021 30.15 850 25.1 10.3 50.6 66 4.4 39.8 10.78 0.424
09:16 1021 30.15 850 25.1 10.5 50.8 63 3.7 38.7 10.94 0.431
09:17 1021 30.15 850 25.1 10.6 51 65 4.4 39.9 10.96 0.431
09:18 1021 30.15 850 25.1 10.5 51 64 4.1 39.3 10.93 0.43
09:19 1021 30.15 850 25.1 10.5 50.9 60 3.2 37.8 10.96 0.431
09:20 1021 30.15 850 25.1 10.5 50.9 60 3 37.4 10.86 0.428
09:21 1021 30.15 850 25.1 10.5 50.9 61 3.4 38.1 10.88 0.428
09:22 1021 30.15 850 25.1 10.5 50.9 60 3 37.5 10.91 0.43
09:23 1021 30.15 850 25.1 10.6 51.1 65 4.3 39.7 10.98 0.432
09:24 1021 30.15 850 25.1 10.7 51.2 61 3.5 38.4 11.13 0.438
09:25 1021 30.15 850 25.1 10.7 51.2 68 5 41 11.06 0.435
09:26 1021 30.15 850 25.1 10.5 51 65 4.3 39.8 10.96 0.431
09:27 1021 30.15 850 25.1 10.5 50.8 66 4.4 39.9 10.88 0.428
09:28 1021 30.15 850 25.1 10.5 50.8 66 4.4 40 10.92 0.43
09:29 1021 30.15 850 25.1 10.4 50.8 64 3.9 39 10.91 0.43
09:30 1021 30.15 850 25.1 10.4 50.7 62 3.5 38.3 10.8 0.425
09:31 1021 30.15 850 25.1 10.2 50.4 63 3.6 38.6 10.62 0.418
09:32 1021 30.15 850 25.1 10.1 50.3 63 3.5 38.4 10.55 0.415
09:33 1021 30.15 850 25.1 10.2 50.4 66 4.2 39.6 10.68 0.42
09:34 1021 30.15 850 25.1 10.4 50.7 64 3.9 38.9 10.87 0.428
09:35 1021 30.15 850 25.1 10.5 50.9 61 3.3 38 10.93 0.43
09:36 1021 30.15 850 25.1 10.6 51 71 5.6 42.1 11.03 0.434
09:37 1021 30.15 850 25.1 10.8 51.4 65 4.4 40 11.18 0.44
09:38 1021 30.15 850 25.1 10.8 51.4 62 3.9 39.1 11.19 0.441
09:39 1021 30.15 850 25.1 10.8 51.4 60 3.4 38 11.29 0.444
09:40 1021 30.15 850 25.1 10.8 51.5 59 3.1 37.6 11.19 0.441
09:41 1021 30.15 850 25.1 10.7 51.3 55 2.2 35.9 11.11 0.437
09:42 1021 30.15 850 25.1 10.7 51.3 64 4.2 39.6 11.11 0.437
09:43 1021 30.15 850 25.1 10.6 51.2 60 3.3 37.9 11.08 0.436
09:44 1021 30.15 850 25.1 10.6 51.1 57 2.6 36.7 11.03 0.434
09:45 1021 30.15 850 25.1 10.6 51 61 3.4 38.1 10.97 0.432
09:46 1021 30.15 850 25.1 10.5 51 65 4.2 39.6 11.02 0.434
09:47 1021 30.15 850 25.1 10.6 51.1 62 3.6 38.5 11.11 0.437
09:48 1021 30.15 850 25.1 10.7 51.3 66 4.7 40.5 11.19 0.441
09:49 1021 30.15 850 25.1 10.8 51.4 61 3.6 38.6 11.27 0.444
09:50 1021 30.15 850 25.1 10.8 51.4 63 3.9 39.1 11.21 0.441
09:51 1021 30.15 850 25.1 10.7 51.2 65 4.5 40.1 11.17 0.44
09:52 1021 30.15 850 25.1 10.6 51.1 66 4.6 40.2 11.08 0.436
09:53 1021 30.15 850 25.1 10.5 51 62 3.7 38.6 11.02 0.434
09:54 1021 30.15 850 25.1 10.5 50.9 59 2.9 37.3 10.95 0.431
09:55 1021 30.15 850 25.1 10.5 50.8 62 3.6 38.4 10.86 0.428
09:56 1021 30.15 850 25.1 10.4 50.8 65 4.2 39.5 10.89 0.429
09:57 1021 30.15 850 25.1 10.5 51 64 4.1 39.5 11.05 0.435
09:58 1021 30.15 850 25.1 10.7 51.2 61 3.4 38.2 11.14 0.439
09:59 1020 30.12 850 25.1 10.7 51.2 61 3.4 38.1 11.1 0.437
10:00 1020 30.12 850 25.1 10.6 51.1 60 3.1 37.6 11.01 0.433
10:01 1020 30.12 850 25.1 10.6 51 59 2.8 37.1 10.98 0.432
10:02 1020 30.12 850 25.1 10.6 51 62 3.7 38.6 10.96 0.431
10:03 1020 30.12 850 25.1 10.6 51 60 3.1 37.6 11.03 0.434
10:04 1020 30.12 850 25.1 10.6 51.1 64 4.1 39.3 11.11 0.437
10:05 1020 30.12 850 25.1 10.7 51.3 62 3.7 38.7 11.17 0.44
10:06 1020 30.12 850 25.1 10.8 51.4 63 4.2 39.5 11.24 0.443
10:07 1020 30.12 850 25.1 10.9 51.6 60 3.4 38.2 11.31 0.445
10:08 1020 30.12 850 25.1 10.9 51.6 63 4.1 39.3 11.27 0.444
10:09 1020 30.12 850 25.1 10.9 51.6 57 2.8 37.1 11.3 0.445
10:10 1020 30.12 850 25.1 10.8 51.5 58 2.9 37.2 11.17 0.44
10:11 1020 30.12 850 25.1 10.8 51.4 59 3.1 37.6 11.12 0.438
10:12 1020 30.12 850 25.1 10.8 51.4 59 3.2 37.7 11.12 0.438
10:13 1020 30.12 850 25.1 10.9 51.6 62 3.9 39.1 11.22 0.442
10:14 1020 30.12 850 25.1 11.1 52 62 4.1 39.3 11.33 0.446
10:15 1020 30.12 850 25.1 11.1 51.9 61 3.8 38.9 11.4 0.449
10:16 1020 30.12 850 25.1 11.2 52.1 62 4.1 39.4 11.49 0.452
10:17 1020 30.12 850 25.1 11.2 52.2 57 3.1 37.6 11.53 0.454
10:18 1020 30.12 850 25.1 11.1 52 57 3 37.4 11.41 0.449
10:19 1020 30.12 850 25.1 11 51.8 61 3.8 38.9 11.4 0.449
10:20 1020 30.12 849 25.07 11.1 51.9 56 2.5 36.6 11.42 0.45
10:21 1020 30.12 849 25.07 11 51.8 58 3.1 37.6 11.25 0.443
10:22 1020 30.12 849 25.07 11 51.8 54 2.2 35.9 11.14 0.439
10:23 1020 30.12 849 25.07 11 51.7 55 2.4 36.3 11.14 0.439
10:24 1020 30.12 849 25.07 11 51.8 58 3.2 37.7 11.15 0.439
10:25 1020 30.12 849 25.07 11 51.9 57 2.8 37.1 11.23 0.442
10:26 1020 30.12 849 25.07 10.9 51.7 60 3.4 38.2 11.25 0.443
10:27 1020 30.12 849 25.07 10.9 51.7 59 3.3 38 11.31 0.445
10:28 1020 30.12 849 25.07 11 51.7 55 2.4 36.3 11.32 0.446
10:29 1020 30.12 849 25.07 11.1 51.9 59 3.3 38 11.4 0.449
10:30 1020 30.12 849 25.07 11.2 52.1 57 3 37.3 11.55 0.455
10:31 1020 30.12 849 25.07 11.1 52.1 57 3.1 37.6 11.54 0.454
10:32 1020 30.12 849 25.07 11.1 52 64 4.7 40.5 11.54 0.454
10:33 1020 30.12 849 25.07 11.1 52.1 57 3 37.4 11.56 0.455
10:34 1020 30.12 849 25.07 11.1 52 59 3.5 38.3 11.57 0.456
10:35 1020 30.12 849 25.07 11.1 52.1 60 3.8 38.8 11.61 0.457
10:36 1020 30.12 849 25.07 11.2 52.2 55 2.6 36.8 11.68 0.46
10:37 1020 30.12 850 25.1 11.3 52.3 55 2.6 36.6 11.72 0.461
10:38 1020 30.12 850 25.1 11.4 52.5 55 2.6 36.7 11.74 0.462
10:39 1020 30.12 850 25.1 11.6 52.9 54 2.8 37 11.91 0.469
10:40 1020 30.12 850 25.1 11.5 52.7 54 2.6 36.7 11.86 0.467
10:41 1020 30.12 850 25.1 11.4 52.5 55 2.7 36.9 11.78 0.464
10:42 1020 30.12 850 25.1 11.3 52.4 56 2.9 37.2 11.77 0.463
10:43 1020 30.12 850 25.1 11.3 52.3 57 3.1 37.5 11.76 0.463
10:44 1020 30.12 849 25.07 11.3 52.4 55 2.6 36.6 11.78 0.464
10:45 1020 30.12 849 25.07 11.5 52.7 59 3.7 38.7 11.91 0.469
10:46 1020 30.12 849 25.07 11.6 53 59 4 39.2 12.05 0.474
10:47 1020 30.12 849 25.07 11.7 53.1 61 4.4 39.9 12.02 0.473
10:48 1020 30.12 850 25.1 11.8 53.3 55 3.2 37.7 12.1 0.476
10:49 1020 30.12 850 25.1 11.8 53.3 59 4.2 39.6 12.12 0.477
10:50 1020 30.12 850 25.1 11.9 53.4 57 3.8 38.8 12.2 0.48
10:51 1020 30.12 850 25.1 11.9 53.4 62 4.9 40.9 12.2 0.48
10:52 1020 30.12 850 25.1 12 53.6 59 4.2 39.6 12.26 0.483
10:53 1020 30.12 850 25.1 12.1 53.8 54 3.2 37.8 12.16 0.479
10:54 1020 30.12 850 25.1 12.2 53.9 54 3.3 38 12.21 0.481
10:55 1020 30.12 850 25.1 12.2 54 58 4.2 39.6 12.3 0.484
10:56 1020 30.12 850 25.1 12.2 53.9 60 4.7 40.4 12.43 0.489
10:57 1020 30.12 850 25.1 12 53.7 62 5 41.1 12.36 0.487
10:58 1020 30.12 850 25.1 11.9 53.4 61 4.7 40.4 12.25 0.482
10:59 1020 30.12 850 25.1 11.8 53.3 57 3.6 38.5 12.21 0.481
11:00 1020 30.12 850 25.1 11.8 53.3 65 5.6 42.1 12.27 0.483
11:01 1020 30.12 850 25.1 12 53.6 55 3.3 37.9 12.41 0.489
11:02 1020 30.12 850 25.1 12.2 53.9 58 4.1 39.4 12.35 0.486
11:03 1020 30.12 850 25.1 12.2 54 54 3.2 37.7 12.4 0.488
11:04 1020 30.12 850 25.1 12.2 54 53 3.1 37.6 12.34 0.486
11:05 1020 30.12 850 25.1 12.3 54.1 61 5.1 41.3 12.42 0.489
11:06 1020 30.12 850 25.1 12.4 54.3 59 4.7 40.4 12.54 0.494
11:07 1020 30.12 850 25.1 12.4 54.4 53 3.3 37.9 12.52 0.493
11:08 1020 30.12 850 25.1 12.3 54.2 53 3 37.3 12.32 0.485
11:09 1020 30.12 850 25.1 12.3 54.2 52 2.7 36.8 12.28 0.483
11:10 1020 30.12 850 25.1 12.4 54.2 59 4.5 40.1 12.34 0.486
11:11 1020 30.12 850 25.1 12.5 54.5 60 5.1 41.2 12.59 0.496
11:12 1020 30.12 850 25.1 12.6 54.6 52 3.1 37.6 12.74 0.502
11:13 1020 30.12 850 25.1 12.5 54.4 55 3.7 38.6 12.69 0.5
11:14 1020 30.12 850 25.1 12.3 54.1 49 2 35.6 12.6 0.496
11:15 1020 30.12 850 25.1 12.1 53.9 53 3 37.4 12.56 0.494
11:16 1020 30.12 850 25.1 12.3 54.2 55 3.5 38.3 12.76 0.502
11:17 1020 30.12 850 25.1 12.4 54.2 50 2.2 36 12.79 0.504
11:18 1020 30.12 850 25.1 12.3 54.2 52 2.8 37 12.74 0.502
11:19 1020 30.12 850 25.1 12.2 54 50 2.1 35.8 12.73 0.501
11:20 1020 30.12 850 25.1 12.1 53.9 58 4.3 39.7 12.6 0.496
11:21 1020 30.12 850 25.1 12.1 53.8 56 3.6 38.5 12.62 0.497
11:22 1020 30.12 850 25.1 12.1 53.8 55 3.4 38.1 12.64 0.498
11:23 1020 30.12 850 25.1 12.2 53.9 53 3 37.5 12.7 0.5
11:24 1020 30.12 850 25.1 12.2 54 51 2.6 36.6 12.71 0.5
11:25 1020 30.12 850 25.1 12.2 53.9 50 2.2 36 12.69 0.5
11:26 1020 30.12 850 25.1 12.2 54 51 2.5 36.5 12.68 0.499
11:27 1020 30.12 850 25.1 12.4 54.3 51 2.6 36.6 12.79 0.504
11:28 1020 30.12 850 25.1 12.4 54.3 50 2.2 36 12.83 0.505
11:29 1020 30.12 850 25.1 12.4 54.3 56 4 39.3 12.83 0.505
11:30 1020 30.12 850 25.1 12.4 54.3 54 3.4 38.2 12.91 0.508
11:31 1020 30.12 849 25.07 12.4 54.3 56 4 39.2 12.91 0.508
11:32 1020 30.12 850 25.1 12.3 54.2 51 2.7 36.8 12.77 0.503
11:33 1020 30.12 850 25.1 12.4 54.4 59 4.6 40.3 12.69 0.5
11:34 1020 30.12 850 25.1 12.6 54.8 57 4.5 40.1 12.88 0.507
11:35 1020 30.12 850 25.1 12.9 55.2 51 3.1 37.6 13.02 0.513
11:36 1020 30.12 850 25.1 13.1 55.7 58 5.1 41.2 13.22 0.52
11:37 1020 30.12 849 25.07 13.4 56.1 53 4 39.1 13.49 0.531
11:38 1020 30.12 849 25.07 13.5 56.3 57 5.3 41.5 13.55 0.533
11:39 1020 30.12 849 25.07 13.6 56.5 49 3.3 38 13.7 0.539
11:40 1020 30.12 849 25.07 13.5 56.3 49 3 37.4 13.43 0.529
11:41 1020 30.12 849 25.07 13.3 56 51 3.3 38 13.16 0.518
11:42 1020 30.12 850 25.1 13.1 55.6 50 3.1 37.5 13.01 0.512
11:43 1020 30.12 849 25.07 12.9 55.2 54 3.9 39.1 12.96 0.51
11:44 1020 30.12 850 25.1 12.9 55.1 53 3.7 38.7 12.97 0.511
11:45 1020 30.12 850 25.1 12.7 54.9 56 4.4 39.9 12.96 0.51
11:46 1020 30.12 849 25.07 12.7 54.8 59 4.9 40.9 12.94 0.509
11:47 1020 30.12 849 25.07 12.7 54.9 61 5.4 41.7 13.06 0.514
11:48 1020 30.12 849 25.07 12.9 55.1 59 5 41.1 13.17 0.519
11:49 1020 30.12 849 25.07 13 55.3 57 4.7 40.5 13.2 0.52
11:50 1020 30.12 849 25.07 13.1 55.5 51 3.3 38 13.22 0.52
11:51 1020 30.12 849 25.07 13.2 55.7 57 5 41 13.31 0.524
11:52 1020 30.12 849 25.07 13.3 55.9 53 3.9 39 13.4 0.528
11:53 1020 30.12 849 25.07 13.3 55.9 51 3.4 38.1 13.3 0.524
11:54 1020 30.12 849 25.07 13.3 55.9 49 3 37.3 13.24 0.521
11:55 1020 30.12 849 25.07 13.2 55.7 54 4.1 39.5 13.18 0.519
11:56 1020 30.12 849 25.07 13 55.4 53 3.8 38.9 13.11 0.516
11:57 1020 30.12 849 25.07 12.8 55 49 2.5 36.5 12.96 0.51
11:58 1020 30.12 849 25.07 12.7 54.8 49 2.2 35.9 12.87 0.507
11:59 1020 30.12 849 25.07 12.6 54.7 51 2.8 37 12.73 0.501
12:00 1020 30.12 849 25.07 12.6 54.8 59 5 41 12.78 0.503
12:01 1020 30.12 849 25.07 12.7 54.9 62 5.6 42.2 13.02 0.513
12:02 1020 30.12 849 25.07 13 55.4 55 4.3 39.8 13.21 0.52
12:03 1020 30.12 849 25.07 13.1 55.6 52 3.6 38.5 13.31 0.524
12:04 1020 30.12 849 25.07 13.1 55.5 55 4.3 39.8 13.35 0.526
12:05 1020 30.12 849 25.07 13.1 55.6 56 4.5 40 13.43 0.529
12:06 1020 30.12 849 25.07 13 55.4 49 2.5 36.5 13.36 0.526
12:07 1020 30.12 849 25.07 12.8 55.1 54 3.9 39.1 13.18 0.519
12:08 1020 30.12 849 25.07 12.8 55.1 55 4.2 39.5 13.2 0.52
12:09 1020 30.12 849 25.07 12.9 55.2 61 5.6 42.1 13.33 0.525
12:10 1020 30.12 849 25.07 12.9 55.2 55 4 39.2 13.32 0.524
12:11 1020 30.12 849 25.07 12.9 55.2 53 3.6 38.4 13.35 0.526
12:12 1020 30.12 849 25.07 12.9 55.2 50 2.7 36.8 13.28 0.523
12:13 1020 30.12 849 25.07 12.7 54.9 48 2.1 35.7 13.15 0.518
12:14 1020 30.12 849 25.07 12.7 54.8 55 3.9 39.1 13.13 0.517
12:15 1020 30.12 849 25.07 12.7 54.9 61 5.5 41.9 13.16 0.518
12:16 1020 30.12 849 25.07 12.7 54.9 53 3.6 38.4 13.08 0.515
12:17 1020 30.12 849 25.07 12.7 54.8 51 3 37.4 12.99 0.511
12:18 1020 30.12 849 25.07 12.5 54.6 58 4.5 40 12.81 0.504
12:19 1020 30.12 849 25.07 12.6 54.6 57 4.3 39.8 12.82 0.505
12:20 1020 30.12 849 25.07 12.7 54.9 53 3.5 38.3 13.01 0.512
12:21 1020 30.12 849 25.07 12.9 55.2 56 4.4 40 13.11 0.516
12:22 1020 30.12 849 25.07 13.1 55.6 58 5.2 41.4 13.3 0.524
12:23 1020 30.12 849 25.07 13.2 55.8 59 5.4 41.6 13.4 0.528
12:24 1020 30.12 849 25.07 13.2 55.7 58 5.2 41.4 13.5 0.531
12:25 1020 30.12 849 25.07 13.3 56 52 3.6 38.5 13.68 0.539
12:26 1020 30.12 849 25.07 13.4 56.1 59 5.7 42.2 13.73 0.541
12:27 1020 30.12 849 25.07 13.5 56.3 47 2.5 36.5 13.84 0.545
12:28 1020 30.12 849 25.07 13.7 56.6 56 5.2 41.4 13.99 0.551
12:29 1020 30.12 849 25.07 13.8 56.9 55 5 41 14.22 0.56
12:30 1020 30.12 849 25.07 13.9 57 61 6.5 43.7 14.27 0.562
12:31 1020 30.12 849 25.07 13.9 57 57 5.6 42.2 14.28 0.562
12:32 1020 30.12 849 25.07 13.8 56.9 47 2.7 36.8 14.18 0.558
12:33 1020 30.12 849 25.07 13.7 56.6 49 3.4 38 13.92 0.548
12:34 1020 30.12 849 25.07 13.6 56.4 58 5.6 42 13.81 0.544
12:35 1020 30.12 849 25.07 13.7 56.6 56 5 41.1 13.92 0.548
12:36 1020 30.12 849 25.07 13.8 56.8 55 4.9 40.9 13.89 0.547
12:37 1020 30.12 849 25.07 13.7 56.7 50 3.5 38.2 13.76 0.542
12:38 1020 30.12 849 25.07 13.6 56.5 58 5.7 42.2 13.66 0.538
12:39 1020 30.12 849 25.07 13.5 56.2 51 3.7 38.6 13.58 0.535
12:40 1020 30.12 849 25.07 13.4 56.2 54 4.4 40 13.58 0.535
12:41 1020 30.12 849 25.07 13.4 56.2 47 2.4 36.3 13.55 0.533
12:42 1020 30.12 849 25.07 13.6 56.5 49 3 37.4 13.69 0.539
12:43 1020 30.12 849 25.07 13.6 56.5 43 1.4 34.5 13.73 0.541
12:44 1020 30.12 849 25.07 13.5 56.2 45 1.8 35.2 13.54 0.533
12:45 1020 30.12 849 25.07 13.4 56.2 45 1.9 35.4 13.63 0.537
12:46 1020 30.12 849 25.07 13.6 56.5 43 1.4 34.5 13.85 0.545
12:47 1020 30.12 849 25.07 13.8 56.8 45 2.1 35.8 14.05 0.553
12:48 1020 30.12 849 25.07 13.9 57 48 3.1 37.6 14.01 0.552
12:49 1020 30.12 849 25.07 13.8 56.9 45 2 35.6 13.96 0.55
12:50 1020 30.12 849 25.07 13.8 56.9 48 3.1 37.6 13.98 0.55
12:51 1020 30.12 849 25.07 13.9 57 44 2.1 35.8 14.02 0.552
12:52 1020 30.12 849 25.07 14 57.1 54 5 41 14.07 0.554
12:53 1020 30.12 849 25.07 14 57.2 54 5 41 14.3 0.563
12:54 1020 30.12 849 25.07 14.2 57.5 49 3.7 38.6 14.33 0.564
12:55 1020 30.12 849 25.07 14.2 57.5 47 3.2 37.7 14.26 0.561
12:56 1020 30.12 849 25.07 14.2 57.6 53 4.9 40.8 14.33 0.564
12:57 1020 30.12 849 25.07 14.2 57.5 47 3.2 37.8 14.32 0.564
12:58 1020 30.12 849 25.07 14.1 57.3 50 3.9 38.9 14.38 0.566
12:59 1020 30.12 849 25.07 14 57.1 44 2 35.6 14.27 0.562
13:00 1020 30.12 849 25.07 13.8 56.9 58 5.7 42.3 14.21 0.559
13:01 1020 30.12 849 25.07 13.9 56.9 50 3.7 38.7 14.31 0.563
13:02 1020 30.12 849 25.07 13.9 56.9 49 3.4 38.2 14.28 0.562
13:03 1020 30.12 849 25.07 13.7 56.7 50 3.5 38.3 14.07 0.554
13:04 1020 30.12 849 25.07 13.4 56.2 46 2.2 36 13.78 0.543
13:05 1020 30.12 849 25.07 13.3 55.9 56 4.8 40.6 13.71 0.54
13:06 1020 30.12 849 25.07 13.3 55.9 46 2.1 35.7 13.77 0.542
13:07 1020 30.12 849 25.07 13.3 56 50 3.2 37.7 13.78 0.543
13:08 1020 30.12 849 25.07 13.5 56.2 57 5.1 41.2 13.91 0.548
13:09 1020 30.12 849 25.07 13.6 56.4 44 1.6 34.9 14.06 0.554
13:10 1020 30.12 849 25.07 13.5 56.3 47 2.5 36.5 14.02 0.552
13:11 1020 30.12 849 25.07 13.6 56.5 49 3.1 37.5 14.17 0.558
13:12 1020 30.12 849 25.07 13.8 56.8 55 5 40.9 14.32 0.564
13:13 1020 30.12 849 25.07 13.9 57.1 45 2.2 36 14.4 0.567
13:14 1020 30.12 849 25.07 14 57.1 46 2.6 36.7 14.35 0.565
13:15 1020 30.12 849 25.07 14.1 57.4 50 4 39.3 14.42 0.568
13:16 1020 30.12 849 25.07 14.1 57.4 60 6.4 43.6 14.59 0.574
13:17 1020 30.12 849 25.07 14.2 57.5 52 4.5 40 14.59 0.574
13:18 1020 30.12 849 25.07 14.2 57.5 55 5.3 41.6 14.56 0.573
13:19 1020 30.12 849 25.07 14.2 57.6 49 3.7 38.6 14.65 0.577
13:20 1020 30.12 849 25.07 14.2 57.6 48 3.6 38.4 14.52 0.572
13:21 1020 30.12 849 25.07 14.1 57.4 51 4.2 39.5 14.42 0.568
13:22 1020 30.12 849 25.07 14.2 57.5 46 2.7 36.9 14.38 0.566
13:23 1020 30.12 849 25.07 14.1 57.4 47 2.9 37.3 14.34 0.565
13:24 1020 30.12 849 25.07 14.2 57.5 46 2.9 37.2 14.38 0.566
13:25 1019 30.09 849 25.07 14.2 57.5 44 2.2 35.9 14.37 0.566
13:26 1020 30.12 849 25.07 14.2 57.6 48 3.4 38.1 14.42 0.568
13:27 1019 30.09 849 25.07 14.1 57.3 51 4.1 39.3 14.34 0.565
13:28 1020 30.12 849 25.07 14 57.2 51 4.1 39.4 14.44 0.569
13:29 1019 30.09 849 25.07 14.1 57.3 59 6.2 43.2 14.42 0.568
13:30 1019 30.09 849 25.07 14.2 57.6 58 6.2 43.2 14.61 0.575
13:31 1019 30.09 849 25.07 14.2 57.5 51 4.2 39.6 14.56 0.573
13:32 1019 30.09 849 25.07 14.2 57.5 53 4.8 40.7 14.54 0.572
13:33 1019 30.09 849 25.07 14.2 57.6 53 4.9 40.8 14.64 0.576
13:34 1019 30.09 849 25.07 14.2 57.5 47 2.9 37.3 14.57 0.574
13:35 1019 30.09 849 25.07 14.1 57.3 53 4.8 40.6 14.5 0.571
13:36 1019 30.09 849 25.07 14.1 57.4 51 4.2 39.5 14.56 0.573
13:37 1019 30.09 849 25.07 14.2 57.5 52 4.4 39.9 14.68 0.578
13:38 1019 30.09 849 25.07 14.2 57.6 49 3.8 38.8 14.69 0.578
13:39 1019 30.09 849 25.07 14.2 57.6 53 4.9 40.8 14.73 0.58
13:40 1019 30.09 849 25.07 14.3 57.7 50 4 39.3 14.69 0.578
13:41 1019 30.09 849 25.07 14.2 57.6 48 3.6 38.4 14.65 0.577
13:42 1019 30.09 849 25.07 14.2 57.5 48 3.4 38.1 14.63 0.576
13:43 1019 30.09 849 25.07 14.2 57.6 55 5.4 41.6 14.7 0.579
13:44 1019 30.09 849 25.07 14.4 57.9 42 1.8 35.3 14.86 0.585
13:45 1019 30.09 849 25.07 14.3 57.8 46 2.8 37.1 14.75 0.581
13:46 1019 30.09 849 25.07 14.2 57.6 49 3.8 38.9 14.69 0.578
13:47 1019 30.09 849 25.07 14.2 57.6 43 1.8 35.3 14.7 0.579
13:48 1019 30.09 849 25.07 14.1 57.5 49 3.6 38.5 14.56 0.573
13:49 1019 30.09 849 25.07 14 57.3 44 2.1 35.8 14.51 0.571
13:50 1019 30.09 849 25.07 14.1 57.3 50 3.9 38.9 14.54 0.572
13:51 1019 30.09 849 25.07 14.2 57.6 53 4.7 40.5 14.72 0.58
13:52 1019 30.09 849 25.07 14.4 58 61 7.1 44.7 14.97 0.589
13:53 1019 30.09 849 25.07 14.7 58.5 48 3.8 38.8 15.24 0.6
13:54 1019 30.09 849 25.07 14.7 58.4 54 5.5 41.9 15.08 0.594
13:55 1019 30.09 849 25.07 14.6 58.3 56 5.9 42.6 15.02 0.591
13:56 1019 30.09 849 25.07 14.7 58.4 53 5.3 41.5 14.98 0.59
13:57 1019 30.09 849 25.07 14.7 58.4 47 3.5 38.3 15.04 0.592
13:58 1019 30.09 849 25.07 14.7 58.5 45 2.9 37.3 15.19 0.598
13:59 1019 30.09 849 25.07 14.9 58.7 56 6.3 43.3 15.27 0.601
14:00 1019 30.09 849 25.07 14.9 58.8 52 5.1 41.3 15.26 0.601
14:01 1019 30.09 849 25.07 14.9 58.8 52 5.3 41.6 15.33 0.604
14:02 1019 30.09 849 25.07 14.8 58.7 51 4.8 40.7 15.17 0.597
14:03 1019 30.09 849 25.07 14.5 58.1 50 4.4 39.8 14.9 0.587
14:04 1019 30.09 849 25.07 14.4 57.9 52 4.8 40.6 14.74 0.58
14:05 1019 30.09 849 25.07 14.6 58.2 45 2.7 36.9 14.83 0.584
14:06 1019 30.09 849 25.07 14.7 58.4 47 3.4 38.2 14.86 0.585
14:07 1019 30.09 848 25.04 14.7 58.4 46 3.4 38 14.85 0.585
14:08 1019 30.09 849 25.07 14.7 58.5 52 5 41 14.91 0.587
14:09 1019 30.09 848 25.04 14.7 58.5 46 3.2 37.8 14.9 0.587
14:10 1019 30.09 849 25.07 14.5 58.1 46 3.2 37.8 14.82 0.583
14:11 1019 30.09 849 25.07 14.5 58.1 48 3.8 38.8 14.73 0.58
14:12 1019 30.09 849 25.07 14.2 57.6 46 2.9 37.2 14.54 0.572
14:13 1019 30.09 848 25.04 14 57.2 50 3.8 38.9 14.31 0.563
14:14 1019 30.09 848 25.04 13.8 56.8 47 2.6 36.7 14.08 0.554
14:15 1019 30.09 849 25.07 13.6 56.4 54 4.6 40.2 13.9 0.547
14:16 1019 30.09 849 25.07 13.5 56.2 53 4.2 39.5 13.85 0.545
14:17 1019 30.09 849 25.07 13.7 56.7 50 3.7 38.6 14.12 0.556
14:18 1019 30.09 849 25.07 14 57.2 47 3 37.4 14.34 0.565
14:19 1019 30.09 848 25.04 14.2 57.6 49 3.9 39 14.63 0.576
14:20 1019 30.09 848 25.04 14.4 58 44 2.6 36.6 14.82 0.583
14:21 1019 30.09 849 25.07 14.5 58.1 47 3.5 38.2 14.91 0.587
14:22 1019 30.09 848 25.04 14.6 58.2 48 3.9 39 15.01 0.591
14:23 1019 30.09 848 25.04 14.6 58.3 52 4.9 40.8 15.07 0.593
14:24 1019 30.09 848 25.04 14.5 58.1 46 3.1 37.7 14.9 0.587
14:25 1019 30.09 848 25.04 14.3 57.8 46 3 37.5 14.64 0.576
14:26 1019 30.09 848 25.04 14.2 57.5 51 4.1 39.4 14.43 0.568
14:27 1019 30.09 848 25.04 14.1 57.3 51 4.2 39.6 14.37 0.566
14:28 1019 30.09 848 25.04 14.3 57.7 50 4.1 39.3 14.54 0.572
14:29 1019 30.09 848 25.04 14.6 58.2 54 5.5 41.9 14.9 0.587
14:30 1019 30.09 848 25.04 14.9 58.8 51 4.9 40.8 15.29 0.602
14:31 1019 30.09 848 25.04 15.1 59.2 45 3.3 37.9 15.52 0.611
14:32 1019 30.09 848 25.04 15 58.9 44 2.9 37.2 15.28 0.602
14:33 1019 30.09 848 25.04 14.8 58.6 47 3.7 38.6 15.15 0.596
14:34 1019 30.09 848 25.04 14.8 58.6 44 2.9 37.1 15.12 0.595
14:35 1019 30.09 848 25.04 14.8 58.7 47 3.8 38.9 15.23 0.6
14:36 1019 30.09 848 25.04 15 59 50 4.8 40.6 15.39 0.606
14:37 1019 30.09 848 25.04 15.1 59.3 54 6.1 43 15.6 0.614
14:38 1019 30.09 848 25.04 15.4 59.7 48 4.6 40.2 15.77 0.621
14:39 1019 30.09 848 25.04 15.4 59.8 49 4.7 40.5 15.83 0.623
14:40 1019 30.09 848 25.04 15.3 59.5 45 3.4 38.1 15.66 0.617
14:41 1019 30.09 848 25.04 15.1 59.1 44 3 37.4 15.37 0.605
14:42 1019 30.09 848 25.04 14.7 58.5 48 3.9 39 15 0.591
14:43 1019 30.09 848 25.04 14.5 58.2 49 4.1 39.3 14.85 0.585
14:44 1019 30.09 848 25.04 14.6 58.2 52 4.8 40.6 14.91 0.587
14:45 1019 30.09 848 25.04 14.7 58.4 45 3.1 37.5 15.08 0.594
14:46 1019 30.09 848 25.04 14.7 58.5 47 3.7 38.6 15.11 0.595
14:47 1019 30.09 848 25.04 14.8 58.7 49 4.3 39.8 15.24 0.6
14:48 1019 30.09 848 25.04 14.9 58.8 47 3.8 38.8 15.23 0.6
14:49 1019 30.09 848 25.04 14.9 58.7 53 5.3 41.6 15.2 0.598
14:50 1019 30.09 848 25.04 15 59 50 4.9 40.7 15.34 0.604
14:51 1019 30.09 848 25.04 15.1 59.2 47 3.9 39 15.42 0.607
14:52 1019 30.09 848 25.04 14.9 58.8 48 4 39.2 15.21 0.599
14:53 1019 30.09 848 25.04 14.6 58.3 47 3.6 38.4 14.99 0.59
14:54 1019 30.09 848 25.04 14.3 57.8 44 2.5 36.5 14.68 0.578
14:55 1019 30.09 848 25.04 14.1 57.4 46 2.6 36.7 14.42 0.568
14:56 1019 30.09 848 25.04 13.9 57 53 4.5 40 14.29 0.563
14:57 1019 30.09 848 25.04 13.8 56.8 47 2.9 37.2 14.16 0.557
14:58 1019 30.09 848 25.04 13.8 56.8 48 3.2 37.8 14.09 0.555
14:59 1019 30.09 848 25.04 13.8 56.8 49 3.4 38.1 14.12 0.556
15:00 1019 30.09 848 25.04 13.8 56.9 49 3.2 37.8 14.22 0.56
15:01 1019 30.09 848 25.04 13.8 56.9 46 2.3 36.2 14.16 0.557
15:02 1019 30.09 848 25.04 13.8 56.8 49 3.4 38 14.2 0.559
15:03 1019 30.09 848 25.04 13.9 57 50 3.8 38.9 14.26 0.561
15:04 1019 30.09 848 25.04 13.9 57 49 3.3 37.9 14.3 0.563
15:05 1019 30.09 848 25.04 13.9 57 50 3.8 38.9 14.31 0.563
15:06 1019 30.09 848 25.04 14 57.2 48 3.3 38 14.39 0.567
15:07 1019 30.09 848 25.04 14 57.2 46 2.6 36.7 14.39 0.567
15:08 1019 30.09 848 25.04 13.9 57 48 3 37.5 14.3 0.563
15:09 1019 30.09 848 25.04 13.9 57 48 3.2 37.7 14.26 0.561
15:10 1019 30.09 848 25.04 14 57.2 50 3.8 38.8 14.42 0.568
15:11 1019 30.09 848 25.04 14.3 57.7 45 2.7 36.9 14.75 0.581
15:12 1019 30.09 848 25.04 14.7 58.5 50 4.6 40.2 15.17 0.597
15:13 1019 30.09 848 25.04 15.1 59.2 42 2.4 36.4 15.58 0.613
15:14 1019 30.09 848 25.04 15.2 59.4 46 3.7 38.7 15.64 0.616
15:15 1019 30.09 848 25.04 15.4 59.6 47 4.1 39.3 15.8 0.622
15:16 1019 30.09 848 25.04 15.5 59.9 48 4.5 40.1 15.95 0.628
15:17 1019 30.09 848 25.04 15.6 60.1 39 1.9 35.5 16 0.63
15:18 1019 30.09 848 25.04 15.3 59.5 41 2.1 35.8 15.66 0.617
15:19 1019 30.09 848 25.04 15 59 42 2.2 35.9 15.41 0.607
15:20 1019 30.09 848 25.04 14.9 58.8 43 2.4 36.3 15.3 0.602
15:21 1019 30.09 848 25.04 14.9 58.9 47 3.9 39 15.28 0.602
15:22 1019 30.09 848 25.04 14.9 58.8 42 2.3 36.2 15.33 0.604
15:23 1019 30.09 848 25.04 14.8 58.7 45 2.9 37.3 15.19 0.598
15:24 1019 30.09 848 25.04 14.6 58.4 42 1.8 35.3 15.04 0.592
15:25 1019 30.09 848 25.04 14.5 58.1 43 2.1 35.8 14.9 0.587
15:26 1019 30.09 848 25.04 14.5 58.1 51 4.6 40.3 14.91 0.587
15:27 1019 30.09 848 25.04 14.6 58.2 43 2.1 35.8 14.99 0.59
15:28 1019 30.09 848 25.04 14.7 58.5 42 1.9 35.4 15.09 0.594
15:29 1019 30.09 848 25.04 14.8 58.6 45 3.1 37.5 15.16 0.597
15:30 1019 30.09 848 25.04 14.9 58.8 49 4.4 40 15.35 0.604
15:31 1019 30.09 848 25.04 15 59 48 4.1 39.4 15.49 0.61
15:32 1019 30.09 848 25.04 15 58.9 42 2.3 36.1 15.35 0.604
15:33 1019 30.09 848 25.04 14.8 58.7 49 4.3 39.7 15.23 0.6
15:34 1019 30.09 848 25.04 14.7 58.5 52 5 40.9 15.15 0.596
15:35 1019 30.09 848 25.04 14.6 58.3 50 4.4 39.8 15.07 0.593
15:36 1019 30.09 848 25.04 14.7 58.4 52 4.9 40.9 15.03 0.592
15:37 1019 30.09 848 25.04 14.7 58.5 43 2.4 36.4 15.15 0.596
15:38 1019 30.09 848 25.04 14.7 58.4 48 4 39.2 15.08 0.594
15:39 1019 30.09 848 25.04 14.6 58.3 47 3.5 38.2 15.03 0.592
15:40 1019 30.09 848 25.04 14.6 58.2 46 3.2 37.8 14.98 0.59
15:41 1019 30.09 848 25.04 14.6 58.2 47 3.4 38.1 14.98 0.59
15:42 1019 30.09 848 25.04 14.7 58.4 45 2.9 37.3 15.07 0.593
15:43 1019 30.09 848 25.04 14.8 58.6 46 3.3 38 15.18 0.598
15:44 1019 30.09 848 25.04 14.8 58.7 48 3.9 39.1 15.28 0.602
15:45 1019 30.09 848 25.04 14.7 58.5 46 3.2 37.8 15.17 0.597
15:46 1019 30.09 848 25.04 14.7 58.4 45 3.1 37.5 14.99 0.59
15:47 1019 30.09 848 25.04 14.6 58.2 45 2.9 37.2 14.92 0.587
15:48 1019 30.09 848 25.04 14.4 57.8 43 1.9 35.4 14.77 0.581
15:49 1019 30.09 848 25.04 14.3 57.7 44 2.1 35.8 14.63 0.576
15:50 1019 30.09 848 25.04 14.1 57.4 40 0.6 33.1 14.47 0.57
15:51 1019 30.09 848 25.04 14 57.1 46 2.7 36.9 14.37 0.566
15:52 1019 30.09 848 25.04 13.8 56.9 43 1.5 34.7 14.26 0.561
15:53 1019 30.09 848 25.04 13.7 56.7 42 1 33.8 14.07 0.554
15:54 1019 30.09 848 25.04 13.7 56.6 43 1.4 34.6 14.03 0.552
15:55 1019 30.09 848 25.04 13.6 56.5 47 2.5 36.5 13.99 0.551
15:56 1019 30.09 848 25.04 13.5 56.4 47 2.7 36.8 13.94 0.549
15:57 1019 30.09 848 25.04 13.5 56.2 42 0.7 33.3 13.8 0.543
15:58 1019 30.09 848 25.04 13.5 56.4 44 1.6 35 13.88 0.546
15:59 1019 30.09 848 25.04 13.6 56.4 50 3.5 38.4 13.96 0.55
16:00 1019 30.09 848 25.04 13.6 56.4 54 4.6 40.3 14.05 0.553
16:01 1019 30.09 848 25.04 13.7 56.7 53 4.5 40 14.2 0.559
16:02 1019 30.09 848 25.04 14.1 57.3 44 2.2 36 14.57 0.574
16:03 1019 30.09 848 25.04 14.5 58.1 42 2 35.6 14.88 0.586
16:04 1019 30.09 848 25.04 14.8 58.7 42 2.1 35.7 15.27 0.601
16:05 1019 30.09 848 25.04 15.2 59.3 44 3.2 37.7 15.64 0.616
16:06 1019 30.09 848 25.04 15.5 59.8 51 5.5 41.9 15.97 0.629
16:07 1019 30.09 848 25.04 15.5 59.9 40 2.1 35.8 16.01 0.63
16:08 1019 30.09 848 25.04 15.3 59.6 43 2.8 37 15.77 0.621
16:09 1019 30.09 848 25.04 15.2 59.3 41 2.1 35.8 15.63 0.615
16:10 1019 30.09 848 25.04 15.2 59.4 44 3.2 37.8 15.68 0.617
16:11 1019 30.09 848 25.04 15.2 59.3 43 2.8 37 15.59 0.614
16:12 1019 30.09 848 25.04 15 59.1 43 2.8 37 15.43 0.607
16:13 1019 30.09 848 25.04 14.8 58.7 41 2 35.5 15.25 0.6
16:14 1019 30.09 848 25.04 14.7 58.4 45 2.9 37.2 15.09 0.594
16:15 1019 30.09 848 25.04 14.5 58.1 49 3.9 39 14.93 0.588
16:16 1019 30.09 848 25.04 14.1 57.5 54 4.9 40.9 14.57 0.574
16:17 1019 30.09 849 25.07 13.6 56.5 48 2.8 37 13.99 0.551
16:18 1019 30.09 848 25.04 13.2 55.7 50 3.1 37.5 13.54 0.533
16:19 1019 30.09 848 25.04 12.9 55.2 54 3.7 38.7 13.26 0.522
16:20 1019 30.09 848 25.04 12.6 54.8 56 4 39.3 13.06 0.514
16:21 1019 30.09 849 25.07 12.5 54.5 55 3.9 39 12.91 0.508
16:22 1019 30.09 849 25.07 12.4 54.3 56 4 39.3 12.83 0.505
16:23 1019 30.09 848 25.04 12.4 54.2 61 5.1 41.2 12.75 0.502
16:24 1019 30.09 849 25.07 12.3 54.2 58 4.4 40 12.74 0.502
16:25 1019 30.09 849 25.07 12.4 54.2 62 5.2 41.4 12.77 0.503
16:26 1019 30.09 849 25.07 12.4 54.3 58 4.5 40.2 12.8 0.504
16:27 1019 30.09 849 25.07 12.5 54.5 61 5.3 41.5 12.92 0.509
16:28 1019 30.09 848 25.04 12.6 54.7 60 5 41.1 13.06 0.514
16:29 1019 30.09 849 25.07 12.9 55.2 59 5.2 41.3 13.31 0.524
16:30 1019 30.09 849 25.07 13.2 55.7 56 4.7 40.5 13.57 0.534
16:31 1019 30.09 849 25.07 13.4 56.1 49 2.9 37.1 13.71 0.54
16:32 1019 30.09 849 25.07 13.4 56 52 3.7 38.7 13.7 0.539
16:33 1019 30.09 849 25.07 13.3 56 54 4.3 39.7 13.71 0.54
16:34 1019 30.09 849 25.07 13.3 55.9 51 3.4 38.2 13.62 0.536
16:35 1020 30.12 849 25.07 13.2 55.7 53 3.9 39 13.52 0.532
16:36 1020 30.12 849 25.07 13.1 55.5 53 3.7 38.7 13.43 0.529
16:37 1020 30.12 849 25.07 13 55.5 56 4.5 40 13.44 0.529
16:38 1020 30.12 849 25.07 12.9 55.2 54 3.8 38.8 13.37 0.526
16:39 1020 30.12 849 25.07 12.8 55.1 52 3.2 37.7 13.19 0.519
16:40 1020 30.12 849 25.07 12.8 55 55 3.9 39.1 13.1 0.516
16:41 1020 30.12 849 25.07 12.7 54.9 54 3.8 38.8 13.13 0.517
16:42 1020 30.12 849 25.07 12.7 54.8 57 4.5 40.1 13.04 0.513
16:43 1020 30.12 849 25.07 12.6 54.8 54 3.5 38.4 13.01 0.512
16:44 1020 30.12 849 25.07 12.7 54.8 55 4 39.1 13.05 0.514
16:45 1020 30.12 849 25.07 12.6 54.7 53 3.4 38.1 13.02 0.513
16:46 1020 30.12 849 25.07 12.6 54.6 55 3.8 38.8 12.96 0.51
16:47 1020 30.12 849 25.07 12.6 54.6 55 3.9 39 12.96 0.51
16:48 1020 30.12 849 25.07 12.6 54.6 54 3.5 38.3 12.95 0.51
16:49 1020 30.12 849 25.07 12.6 54.7 56 4 39.3 12.95 0.51
16:50 1020 30.12 849 25.07 12.6 54.7 55 3.9 39 13 0.512
16:51 1020 30.12 849 25.07 12.6 54.6 54 3.6 38.5 12.98 0.511
16:52 1020 30.12 849 25.07 12.6 54.7 53 3.4 38.2 12.98 0.511
16:53 1020 30.12 849 25.07 12.6 54.7 58 4.6 40.3 13.03 0.513
16:54 1020 30.12 849 25.07 12.6 54.8 56 4.1 39.3 13.05 0.514
16:55 1020 30.12 849 25.07 12.7 54.8 55 4 39.2 13.08 0.515
16:56 1020 30.12 849 25.07 12.7 54.8 57 4.5 40.1 13.08 0.515
16:57 1020 30.12 849 25.07 12.6 54.7 54 3.6 38.6 13.02 0.513
16:58 1020 30.12 849 25.07 12.7 54.8 52 3.1 37.6 13.01 0.512
16:59 1020 30.12 849 25.07 12.7 54.8 52 3.1 37.6 13.04 0.513
17:00 1020 30.12 849 25.07 12.7 54.8 51 2.8 37.1 13.03 0.513
17:01 1020 30.12 849 25.07 12.7 54.9 51 3 37.4 13.08 0.515
17:02 1020 30.12 849 25.07 12.7 54.9 51 2.9 37.3 13.09 0.515
17:03 1020 30.12 849 25.07 12.7 54.9 51 2.9 37.3 13.1 0.516
17:04 1020 30.12 849 25.07 12.7 54.9 57 4.5 40.2 13.1 0.516
17:05 1020 30.12 849 25.07 12.6 54.7 58 4.7 40.4 13.07 0.515
17:06 1020 30.12 849 25.07 12.5 54.6 58 4.5 40.1 13 0.512
17:07 1020 30.12 849 25.07 12.5 54.5 57 4.3 39.8 12.95 0.51
17:08 1020 30.12 849 25.07 12.5 54.5 56 4 39.1 12.87 0.507
17:09 1020 30.12 849 25.07 12.4 54.4 57 4.2 39.6 12.86 0.506
17:10 1020 30.12 849 25.07 12.5 54.4 56 4.1 39.4 12.85 0.506
17:11 1020 30.12 849 25.07 12.5 54.4 56 4.1 39.3 12.84 0.506
17:12 1020 30.12 849 25.07 12.5 54.4 57 4.1 39.4 12.84 0.506
17:13 1020 30.12 849 25.07 12.4 54.4 56 3.9 39 12.84 0.506
17:14 1020 30.12 849 25.07 12.5 54.4 56 4 39.1 12.84 0.506
17:15 1020 30.12 849 25.07 12.5 54.4 55 3.9 38.9 12.85 0.506
17:16 1020 30.12 849 25.07 12.5 54.5 56 4.1 39.3 12.86 0.506
17:17 1020 30.12 849 25.07 12.5 54.5 53 3.3 37.9 12.89 0.507
17:18 1020 30.12 849 25.07 12.5 54.6 61 5.3 41.5 12.96 0.51
17:19 1020 30.12 849 25.07 12.5 54.5 62 5.6 42 12.99 0.511
17:20 1020 30.12 849 25.07 12.5 54.5 60 5.1 41.1 12.95 0.51
17:21 1020 30.12 849 25.07 12.5 54.5 63 5.7 42.3 12.92 0.509
17:22 1020 30.12 849 25.07 12.5 54.5 61 5.3 41.6 12.98 0.511
17:23 1020 30.12 849 25.07 12.5 54.5 61 5.2 41.4 12.97 0.511
17:24 1020 30.12 849 25.07 12.6 54.6 62 5.4 41.8 13.05 0.514
17:25 1020 30.12 849 25.07 12.6 54.7 62 5.6 42.1 13.05 0.514
17:26 1020 30.12 849 25.07 12.7 54.8 60 5.1 41.3 13.14 0.517
17:27 1020 30.12 849 25.07 12.8 55 57 4.7 40.4 13.16 0.518
17:28 1020 30.12 849 25.07 12.9 55.2 57 4.7 40.5 13.33 0.525
17:29 1020 30.12 849 25.07 13 55.4 63 6.2 43.1 13.43 0.529
17:30 1020 30.12 849 25.07 13.1 55.6 61 5.8 42.4 13.56 0.534
17:31 1020 30.12 849 25.07 13.3 55.9 58 5.2 41.4 13.67 0.538
17:32 1020 30.12 849 25.07 13.3 56 61 6.1 42.9 13.77 0.542
17:33 1020 30.12 849 25.07 13.5 56.2 57 5.1 41.2 13.94 0.549
17:34 1020 30.12 849 25.07 13.5 56.3 59 5.8 42.5 13.98 0.55
17:35 1020 30.12 849 25.07 13.5 56.4 58 5.5 42 14.07 0.554
17:36 1020 30.12 849 25.07 13.6 56.5 62 6.4 43.6 14.12 0.556
17:37 1020 30.12 849 25.07 13.6 56.6 58 5.7 42.3 14.12 0.556
17:38 1020 30.12 849 25.07 13.8 56.8 55 5 41 14.22 0.56
17:39 1020 30.12 849 25.07 13.9 56.9 52 4.2 39.6 14.36 0.565
17:40 1020 30.12 849 25.07 14 57.1 55 5.3 41.5 14.37 0.566
17:41 1020 30.12 849 25.07 14 57.2 54 4.8 40.7 14.5 0.571
17:42 1020 30.12 849 25.07 14 57.3 57 5.7 42.2 14.53 0.572
17:43 1020 30.12 849 25.07 14 57.3 54 4.9 40.9 14.53 0.572
17:44 1020 30.12 849 25.07 14 57.2 57 5.6 42 14.54 0.572
17:45 1020 30.12 849 25.07 14 57.3 53 4.7 40.5 14.49 0.57
17:46 1020 30.12 849 25.07 14 57.2 51 4.2 39.5 14.48 0.57
17:47 1020 30.12 849 25.07 14 57.2 55 5.2 41.4 14.49 0.57
17:48 1020 30.12 849 25.07 14 57.2 56 5.4 41.7 14.52 0.572
17:49 1020 30.12 849 25.07 14.1 57.4 55 5.2 41.4 14.63 0.576
17:50 1020 30.12 849 25.07 14.2 57.5 55 5.3 41.6 14.64 0.576
17:51 1020 30.12 849 25.07 14.3 57.7 55 5.4 41.7 14.73 0.58
17:52 1020 30.12 849 25.07 14.3 57.8 52 4.6 40.3 14.82 0.583
17:53 1020 30.12 849 25.07 14.4 57.9 53 4.9 40.8 14.9 0.587
17:54 1020 30.12 849 25.07 14.4 57.9 52 4.8 40.6 14.9 0.587
17:55 1020 30.12 849 25.07 14.4 58 51 4.5 40.1 14.88 0.586
17:56 1020 30.12 849 25.07 14.4 57.9 57 6 42.8 14.84 0.584
17:57 1020 30.12 849 25.07 14.4 57.9 51 4.5 40.2 14.94 0.588
17:58 1020 30.12 849 25.07 14.5 58 52 4.9 40.8 14.96 0.589
17:59 1020 30.12 849 25.07 14.4 58 55 5.6 42.1 14.92 0.587
18:00 1020 30.12 849 25.07 14.4 57.9 49 4.1 39.3 14.88 0.586
18:01 1020 30.12 849 25.07 14.4 57.9 54 5.2 41.3 14.85 0.585
18:02 1020 30.12 849 25.07 14.4 58 52 4.9 40.7 14.94 0.588
18:03 1020 30.12 849 25.07 14.4 58 53 5 41 14.95 0.589
18:04 1020 30.12 849 25.07 14.5 58.1 56 5.8 42.5 14.99 0.59
18:05 1020 30.12 849 25.07 14.5 58.2 48 3.6 38.5 15.02 0.591
18:06 1020 30.12 849 25.07 14.5 58.1 57 6.1 43 14.98 0.59
18:07 1020 30.12 849 25.07 14.6 58.2 50 4.3 39.8 15.12 0.595
18:08 1020 30.12 849 25.07 14.6 58.3 44 2.6 36.7 15.1 0.594
18:09 1020 30.12 849 25.07 14.6 58.2 51 4.7 40.4 15.03 0.592
18:10 1020 30.12 849 25.07 14.6 58.2 49 4 39.2 15.03 0.592
18:11 1020 30.12 849 25.07 14.6 58.2 51 4.6 40.2 15.02 0.591
18:12 1020 30.12 849 25.07 14.6 58.2 49 3.9 39.1 15.05 0.593
18:13 1020 30.12 849 25.07 14.5 58.2 54 5.5 41.8 15.05 0.593
18:14 1020 30.12 849 25.07 14.6 58.3 47 3.5 38.2 15.12 0.595
18:15 1020 30.12 849 25.07 14.7 58.4 52 5.1 41.2 15.1 0.594
18:16 1020 30.12 849 25.07 14.7 58.4 50 4.6 40.2 15.16 0.597
18:17 1020 30.12 849 25.07 14.7 58.4 46 3.3 37.9 15.15 0.596
18:18 1020 30.12 849 25.07 14.7 58.4 53 5.3 41.5 15.08 0.594
18:19 1020 30.12 849 25.07 14.7 58.4 50 4.5 40.1 15.09 0.594
18:20 1020 30.12 849 25.07 14.6 58.3 51 4.6 40.4 15.03 0.592
18:21 1020 30.12 849 25.07 14.6 58.2 49 4.1 39.3 15.01 0.591
18:22 1020 30.12 849 25.07 14.6 58.3 51 4.6 40.4 14.98 0.59
18:23 1020 30.12 849 25.07 14.6 58.2 47 3.3 38 14.91 0.587
18:24 1020 30.12 849 25.07 14.5 58.1 48 3.7 38.7 14.84 0.584
18:25 1020 30.12 849 25.07 14.4 57.9 50 4.3 39.7 14.77 0.581
18:26 1020 30.12 849 25.07 14.3 57.7 53 4.9 40.9 14.68 0.578
18:27 1020 30.12 849 25.07 14.1 57.3 49 3.7 38.7 14.47 0.57
18:28 1020 30.12 849 25.07 13.8 56.8 50 3.5 38.3 14.12 0.556
18:29 1020 30.12 849 25.07 13.5 56.3 52 4 39.3 13.9 0.547
18:30 1020 30.12 849 25.07 13.3 56 50 3.3 37.9 13.69 0.539
18:31 1020 30.12 849 25.07 13.2 55.7 51 3.4 38.2 13.51 0.532
18:32 1020 30.12 849 25.07 13.1 55.5 53 3.9 39 13.43 0.529
18:33 1020 30.12 849 25.07 12.9 55.3 52 3.4 38.1 13.33 0.525
18:34 1020 30.12 849 25.07 12.9 55.2 51 3.1 37.6 13.29 0.523
18:35 1020 30.12 849 25.07 13 55.4 51 3 37.4 13.37 0.526
18:36 1020 30.12 849 25.07 13.2 55.7 49 2.7 36.8 13.54 0.533
18:37 1020 30.12 849 25.07 13.4 56 47 2.5 36.4 13.69 0.539
18:38 1020 30.12 849 25.07 13.5 56.4 50 3.5 38.3 13.89 0.547
18:39 1020 30.12 849 25.07 13.6 56.5 49 3.1 37.6 14.02 0.552
18:40 1020 30.12 849 25.07 13.7 56.7 52 4 39.2 14.11 0.556
18:41 1020 30.12 849 25.07 13.7 56.7 49 3.4 38.1 14.16 0.557
18:42 1020 30.12 849 25.07 13.8 56.8 48 3.1 37.5 14.18 0.558
18:43 1020 30.12 849 25.07 13.8 56.9 52 4.3 39.7 14.24 0.561
18:44 1020 30.12 849 25.07 13.9 57 49 3.4 38.2 14.27 0.562
18:45 1020 30.12 849 25.07 14 57.1 45 2.1 35.9 14.3 0.563
18:46 1020 30.12 849 25.07 14 57.1 46 2.7 36.8 14.32 0.564
18:47 1020 30.12 849 25.07 14 57.2 49 3.4 38.1 14.4 0.567
18:48 1020 30.12 849 25.07 14 57.2 48 3.3 37.9 14.37 0.566
18:49 1020 30.12 849 25.07 14 57.2 47 3.1 37.5 14.33 0.564
18:50 1020 30.12 849 25.07 13.9 57.1 49 3.6 38.5 14.29 0.563
18:51 1020 30.12 849 25.07 13.8 56.9 49 3.5 38.3 14.22 0.56
18:52 1020 30.12 849 25.07 13.7 56.6 48 3 37.5 14.03 0.552
18:53 1020 30.12 849 25.07 13.6 56.4 51 3.6 38.6 13.94 0.549
18:54 1020 30.12 849 25.07 13.5 56.3 49 3.1 37.5 13.85 0.545
18:55 1020 30.12 849 25.07 13.5 56.2 49 3 37.3 13.83 0.544
18:56 1020 30.12 849 25.07 13.5 56.2 50 3.4 38.2 13.8 0.543
18:57 1020 30.12 849 25.07 13.4 56.1 51 3.6 38.5 13.8 0.543
18:58 1020 30.12 849 25.07 13.4 56 52 3.9 39 13.75 0.541
18:59 1020 30.12 849 25.07 13.3 55.9 54 4.2 39.6 13.69 0.539
19:00 1020 30.12 849 25.07 13.2 55.7 54 4 39.2 13.6 0.535
19:01 1020 30.12 849 25.07 13.1 55.6 50 3 37.3 13.51 0.532
19:02 1020 30.12 849 25.07 13.1 55.6 52 3.5 38.4 13.47 0.53
19:03 1020 30.12 849 25.07 13.1 55.6 51 3.3 37.9 13.5 0.531
19:04 1020 30.12 849 25.07 13.1 55.6 55 4.3 39.7 13.54 0.533
19:05 1020 30.12 849 25.07 13.2 55.7 53 3.7 38.7 13.55 0.533
19:06 1020 30.12 849 25.07 13.2 55.8 53 3.9 39 13.58 0.535
19:07 1020 30.12 849 25.07 13.1 55.6 52 3.6 38.5 13.53 0.533
19:08 1020 30.12 849 25.07 13.2 55.7 53 3.8 38.8 13.55 0.533
19:09 1020 30.12 849 25.07 13.2 55.8 55 4.5 40.2 13.69 0.539
19:10 1020 30.12 849 25.07 13.3 55.9 53 4.1 39.3 13.75 0.541
19:11 1020 30.12 849 25.07 13.3 56 56 4.7 40.4 13.78 0.543
19:12 1020 30.12 849 25.07 13.3 56 53 4.1 39.4 13.72 0.54
19:13 1020 30.12 849 25.07 13.3 56 54 4.2 39.5 13.75 0.541
19:14 1020 30.12 849 25.07 13.3 56 55 4.5 40.1 13.81 0.544
19:15 1020 30.12 849 25.07 13.3 56 54 4.3 39.7 13.79 0.543
19:16 1020 30.12 849 25.07 13.3 55.9 53 3.8 38.9 13.72 0.54
19:17 1020 30.12 849 25.07 13.2 55.8 53 3.8 38.9 13.61 0.536
19:18 1020 30.12 849 25.07 13.2 55.7 53 3.8 38.9 13.58 0.535
19:19 1020 30.12 849 25.07 13.1 55.6 51 3.2 37.8 13.53 0.533
19:20 1020 30.12 849 25.07 13.1 55.5 51 3.3 38 13.52 0.532
19:21 1020 30.12 849 25.07 13 55.5 52 3.5 38.2 13.44 0.529
19:22 1020 30.12 850 25.1 13 55.4 53 3.7 38.7 13.41 0.528
19:23 1020 30.12 849 25.07 13 55.3 51 3.1 37.7 13.36 0.526
19:24 1020 30.12 850 25.1 13 55.3 55 4.3 39.7 13.39 0.527
19:25 1020 30.12 850 25.1 12.9 55.2 52 3.4 38.1 13.32 0.524
19:26 1020 30.12 850 25.1 12.9 55.2 53 3.5 38.3 13.28 0.523
19:27 1020 30.12 850 25.1 12.8 55.1 54 3.8 38.8 13.19 0.519
19:28 1020 30.12 850 25.1 12.7 54.9 55 4 39.2 13.14 0.517
19:29 1020 30.12 850 25.1 12.7 54.8 55 3.9 39 13.05 0.514
19:30 1020 30.12 850 25.1 12.5 54.5 56 4 39.1 12.95 0.51
19:31 1020 30.12 850 25.1 12.4 54.3 53 3.2 37.8 12.76 0.502
19:32 1020 30.12 850 25.1 12.2 54 54 3.3 38 12.64 0.498
19:33 1020 30.12 850 25.1 12.2 53.9 58 4.1 39.4 12.52 0.493
19:34 1020 30.12 850 25.1 12 53.7 56 3.7 38.6 12.47 0.491
19:35 1020 30.12 850 25.1 12 53.6 59 4.2 39.6 12.4 0.488
19:36 1021 30.15 850 25.1 11.9 53.3 60 4.5 40.1 12.33 0.485
19:37 1021 30.15 850 25.1 11.8 53.2 61 4.5 40.1 12.2 0.48
19:38 1021 30.15 850 25.1 11.7 53 59 4.1 39.4 12.16 0.479
19:39 1021 30.15 850 25.1 11.7 53 62 4.6 40.3 12.08 0.476
19:40 1021 30.15 850 25.1 11.6 52.8 65 5.2 41.4 12.05 0.474
19:41 1021 30.15 850 25.1 11.5 52.7 67 5.7 42.2 11.99 0.472
19:42 1021 30.15 850 25.1 11.4 52.5 67 5.5 41.9 11.86 0.467
19:43 1021 30.15 850 25.1 11.3 52.3 66 5.3 41.5 11.78 0.464
19:44 1021 30.15 850 25.1 11.3 52.3 65 5 40.9 11.71 0.461
19:45 1021 30.15 850 25.1 11.2 52.2 64 4.6 40.4 11.66 0.459
19:46 1021 30.15 850 25.1 11.3 52.3 62 4.3 39.7 11.66 0.459
19:47 1021 30.15 850 25.1 11.3 52.4 62 4.5 40 11.68 0.46
19:48 1021 30.15 850 25.1 11.3 52.4 64 4.8 40.6 11.7 0.461
19:49 1021 30.15 850 25.1 11.3 52.4 61 4 39.2 11.7 0.461
19:50 1021 30.15 850 25.1 11.4 52.4 60 3.8 38.9 11.72 0.461
19:51 1021 30.15 850 25.1 11.4 52.6 58 3.4 38.2 11.79 0.464
19:52 1021 30.15 850 25.1 11.4 52.6 58 3.6 38.5 11.82 0.465
19:53 1021 30.15 850 25.1 11.5 52.7 59 3.8 38.9 11.85 0.467
19:54 1021 30.15 850 25.1 11.5 52.6 59 3.8 38.8 11.82 0.465
19:55 1021 30.15 850 25.1 11.4 52.6 59 3.8 38.8 11.81 0.465
19:56 1021 30.15 850 25.1 11.4 52.5 60 3.9 39.1 11.81 0.465
19:57 1021 30.15 850 25.1 11.4 52.5 61 4.2 39.5 11.8 0.465
19:58 1021 30.15 850 25.1 11.3 52.3 59 3.7 38.6 11.72 0.461
19:59 1021 30.15 850 25.1 11.3 52.4 58 3.4 38.1 11.69 0.46
20:00 1021 30.15 850 25.1 11.4 52.4 59 3.7 38.7 11.71 0.461
20:01 1021 30.15 850 25.1 11.4 52.5 59 3.8 38.9 11.75 0.463
20:02 1021 30.15 850 25.1 11.4 52.5 58 3.6 38.4 11.72 0.461
20:03 1021 30.15 850 25.1 11.3 52.4 57 3.3 37.9 11.7 0.461
20:04 1021 30.15 850 25.1 11.3 52.4 58 3.5 38.3 11.67 0.459
20:05 1021 30.15 850 25.1 11.3 52.3 56 2.8 37 11.64 0.458
20:06 1021 30.15 850 25.1 11.3 52.3 58 3.3 38 11.64 0.458
20:07 1021 30.15 850 25.1 11.3 52.3 58 3.4 38.2 11.64 0.458
20:08 1021 30.15 850 25.1 11.2 52.2 60 3.7 38.7 11.6 0.457
20:09 1021 30.15 850 25.1 11.1 52 60 3.6 38.5 11.52 0.454
20:10 1021 30.15 850 25.1 11.1 51.9 61 3.8 38.8 11.45 0.451
20:11 1021 30.15 850 25.1 11 51.8 62 4 39.2 11.38 0.448
20:12 1021 30.15 850 25.1 10.9 51.6 63 4.1 39.4 11.33 0.446
20:13 1021 30.15 850 25.1 10.8 51.5 62 3.9 39 11.25 0.443
20:14 1021 30.15 850 25.1 10.8 51.4 63 4.1 39.3 11.14 0.439
20:15 1021 30.15 850 25.1 10.7 51.2 64 4.1 39.4 11.07 0.436
20:16 1021 30.15 850 25.1 10.6 51 63 3.9 39.1 10.96 0.431
20:17 1021 30.15 850 25.1 10.5 50.9 63 3.8 38.9 10.88 0.428
20:18 1021 30.15 850 25.1 10.4 50.8 63 3.7 38.7 10.83 0.426
20:19 1021 30.15 850 25.1 10.4 50.7 62 3.6 38.4 10.79 0.425
20:20 1021 30.15 850 25.1 10.4 50.7 64 3.9 39 10.75 0.423
20:21 1021 30.15 850 25.1 10.3 50.5 65 4 39.1 10.7 0.421
20:22 1021 30.15 850 25.1 10.2 50.4 64 3.8 38.8 10.61 0.418
20:23 1021 30.15 850 25.1 10.2 50.3 65 4 39.2 10.59 0.417
20:24 1021 30.15 851 25.13 10.1 50.2 66 4.1 39.3 10.55 0.415
20:25 1021 30.15 851 25.13 10.1 50.1 67 4.3 39.7 10.5 0.413
20:26 1021 30.15 851 25.13 10 50 68 4.3 39.8 10.43 0.411
20:27 1021 30.15 851 25.13 9.9 49.8 68 4.3 39.8 10.35 0.407
20:28 1021 30.15 851 25.13 9.9 49.8 67 4.2 39.5 10.31 0.406
20:29 1021 30.15 850 25.1 9.8 49.7 68 4.2 39.6 10.25 0.404
20:30 1021 30.15 850 25.1 9.8 49.7 69 4.5 40.1 10.22 0.402
20:31 1021 30.15 850 25.1 9.7 49.5 69 4.3 39.7 10.19 0.401
20:32 1021 30.15 850 25.1 9.8 49.6 68 4.2 39.6 10.17 0.4
20:33 1021 30.15 850 25.1 9.8 49.6 69 4.3 39.8 10.18 0.401
20:34 1021 30.15 850 25.1 9.8 49.6 69 4.3 39.8 10.16 0.4
20:35 1021 30.15 850 25.1 9.8 49.6 69 4.3 39.8 10.16 0.4
20:36 1021 30.15 850 25.1 9.7 49.5 68 4.2 39.5 10.14 0.399
20:37 1021 30.15 850 25.1 9.7 49.5 69 4.5 40 10.12 0.398
20:38 1021 30.15 850 25.1 9.8 49.6 68 4.3 39.7 10.16 0.4
20:39 1021 30.15 850 25.1 9.7 49.5 70 4.5 40.1 10.12 0.398
20:40 1021 30.15 851 25.13 9.7 49.4 72 4.9 40.8 10.08 0.397
20:41 1021 30.15 851 25.13 9.5 49.1 72 4.7 40.5 10.01 0.394
20:42 1021 30.15 851 25.13 9.4 48.9 73 4.8 40.7 9.9 0.39
20:43 1021 30.15 850 25.1 9.4 48.8 73 4.8 40.6 9.81 0.386
20:44 1021 30.15 851 25.13 9.3 48.7 73 4.6 40.3 9.74 0.383
20:45 1021 30.15 851 25.13 9.3 48.7 73 4.7 40.4 9.66 0.38
20:46 1021 30.15 851 25.13 9.2 48.5 73 4.6 40.3 9.63 0.379
20:47 1021 30.15 851 25.13 9.1 48.5 74 4.8 40.6 9.56 0.376
20:48 1021 30.15 851 25.13 9.1 48.4 72 4.4 40 9.55 0.376
20:49 1021 30.15 851 25.13 9.1 48.4 73 4.5 40.1 9.51 0.374
20:50 1021 30.15 851 25.13 9.1 48.4 72 4.3 39.8 9.51 0.374
20:51 1021 30.15 851 25.13 9.2 48.5 72 4.5 40.1 9.53 0.375
20:52 1021 30.15 851 25.13 9.2 48.5 73 4.5 40.1 9.56 0.376
20:53 1021 30.15 851 25.13 9.2 48.5 73 4.6 40.3 9.55 0.376
20:54 1021 30.15 851 25.13 9.1 48.4 73 4.6 40.3 9.55 0.376
20:55 1021 30.15 851 25.13 9 48.3 74 4.7 40.5 9.49 0.374
20:56 1021 30.15 851 25.13 9 48.1 75 4.8 40.7 9.42 0.371
20:57 1021 30.15 851 25.13 8.9 47.9 76 4.9 40.7 9.32 0.367
20:58 1022 30.18 851 25.13 8.8 47.8 75 4.6 40.4 9.23 0.363
20:59 1021 30.15 851 25.13 8.8 47.8 77 4.9 40.8 9.23 0.363
21:00 1021 30.15 851 25.13 8.7 47.7 77 5 41 9.18 0.361
21:01 1021 30.15 851 25.13 8.7 47.6 78 5.1 41.1 9.12 0.359
21:02 1021 30.15 851 25.13 8.6 47.5 78 5 40.9 9.05 0.356
21:03 1021 30.15 851 25.13 8.6 47.4 78 5 41 9.01 0.355
21:04 1022 30.18 851 25.13 8.5 47.2 78 4.9 40.9 8.94 0.352
21:05 1022 30.18 851 25.13 8.5 47.2 79 5 40.9 8.85 0.348
21:06 1022 30.18 851 25.13 8.4 47.1 79 5 41 8.83 0.348
21:07 1022 30.18 851 25.13 8.4 47.1 79 4.9 40.9 8.82 0.347
21:08 1022 30.18 851 25.13 8.4 47.1 79 5 41 8.81 0.347
21:09 1022 30.18 851 25.13 8.4 47 79 5 41 8.8 0.346
21:10 1022 30.18 851 25.13 8.3 47 80 5.1 41.2 8.78 0.346
21:11 1022 30.18 851 25.13 8.3 47 81 5.2 41.3 8.74 0.344
21:12 1022 30.18 851 25.13 8.3 46.9 81 5.3 41.5 8.71 0.343
21:13 1022 30.18 851 25.13 8.2 46.8 81 5.2 41.4 8.71 0.343
21:14 1022 30.18 851 25.13 8.2 46.8 81 5.2 41.3 8.65 0.341
21:15 1022 30.18 851 25.13 8.3 46.9 81 5.2 41.4 8.68 0.342
21:16 1022 30.18 851 25.13 8.3 46.9 81 5.2 41.3 8.67 0.341
21:17 1022 30.18 851 25.13 8.3 46.9 80 5.1 41.1 8.69 0.342
21:18 1022 30.18 851 25.13 8.3 47 80 5 41 8.71 0.343
21:19 1022 30.18 851 25.13 8.4 47.1 79 5 41.1 8.76 0.345
21:20 1022 30.18 851 25.13 8.4 47 80 5.1 41.1 8.77 0.345
21:21 1022 30.18 851 25.13 8.4 47 79 5 41 8.8 0.346
21:22 1022 30.18 851 25.13 8.4 47.1 79 5 41 8.76 0.345
21:23 1022 30.18 851 25.13 8.4 47.1 77 4.7 40.4 8.76 0.345
21:24 1022 30.18 851 25.13 8.5 47.2 77 4.6 40.2 8.76 0.345
21:25 1022 30.18 851 25.13 8.5 47.3 77 4.7 40.4 8.83 0.348
21:26 1022 30.18 851 25.13 8.5 47.4 76 4.5 40.2 8.84 0.348
21:27 1022 30.18 851 25.13 8.5 47.3 76 4.6 40.3 8.87 0.349
21:28 1022 30.18 851 25.13 8.5 47.3 76 4.6 40.2 8.86 0.349
21:29 1022 30.18 851 25.13 8.4 47.2 76 4.5 40.1 8.82 0.347
21:30 1022 30.18 851 25.13 8.4 47.1 76 4.4 40 8.76 0.345
21:31 1022 30.18 851 25.13 8.4 47 76 4.4 39.9 8.75 0.344
21:32 1022 30.18 851 25.13 8.4 47.1 76 4.4 39.9 8.74 0.344
21:33 1022 30.18 851 25.13 8.4 47 76 4.3 39.8 8.75 0.344
21:34 1022 30.18 851 25.13 8.4 47 75 4.3 39.7 8.71 0.343
21:35 1022 30.18 851 25.13 8.3 47 75 4.2 39.6 8.68 0.342
21:36 1022 30.18 851 25.13 8.3 46.9 76 4.3 39.7 8.69 0.342
21:37 1022 30.18 851 25.13 8.2 46.8 76 4.3 39.7 8.6 0.339
21:38 1022 30.18 851 25.13 8.1 46.7 75 4.1 39.3 8.61 0.339
21:39 1022 30.18 851 25.13 8.1 46.6 76 4.2 39.6 8.56 0.337
21:40 1022 30.18 851 25.13 8.1 46.6 74 3.8 38.8 8.5 0.335
21:41 1022 30.18 851 25.13 8.2 46.8 75 4 39.3 8.56 0.337
21:42 1022 30.18 851 25.13 8.2 46.8 76 4.2 39.5 8.58 0.338
21:43 1022 30.18 851 25.13 8.2 46.7 77 4.4 39.8 8.58 0.338
21:44 1022 30.18 851 25.13 8 46.5 78 4.5 40.1 8.51 0.335
21:45 1022 30.18 851 25.13 7.9 46.3 79 4.5 40.1 8.38 0.33
21:46 1022 30.18 851 25.13 7.8 46.1 80 4.6 40.3 8.27 0.326
21:47 1022 30.18 851 25.13 7.7 45.9 81 4.6 40.4 8.21 0.323
21:48 1022 30.18 851 25.13 7.7 45.9 81 4.7 40.5 8.15 0.321
21:49 1022 30.18 851 25.13 7.6 45.8 82 4.7 40.5 8.11 0.319
21:50 1022 30.18 851 25.13 7.6 45.6 82 4.8 40.6 8.05 0.317
21:51 1022 30.18 851 25.13 7.5 45.6 83 4.8 40.6 8 0.315
21:52 1022 30.18 851 25.13 7.5 45.5 83 4.8 40.6 7.96 0.313
21:53 1022 30.18 851 25.13 7.5 45.4 83 4.8 40.6 7.94 0.313
21:54 1022 30.18 851 25.13 7.5 45.5 83 4.8 40.7 7.93 0.312
21:55 1022 30.18 851 25.13 7.5 45.5 83 4.8 40.7 7.92 0.312
21:56 1022 30.18 851 25.13 7.5 45.5 83 4.8 40.7 7.92 0.312
21:57 1022 30.18 851 25.13 7.5 45.5 84 4.9 40.9 7.9 0.311
21:58 1022 30.18 851 25.13 7.5 45.4 83 4.8 40.6 7.9 0.311
21:59 1022 30.18 851 25.13 7.6 45.7 82 4.7 40.5 7.91 0.311
22:00 1022 30.18 851 25.13 7.7 45.8 81 4.7 40.5 8.02 0.316
22:01 1022 30.18 851 25.13 7.7 45.9 81 4.7 40.4 8.13 0.32
22:02 1022 30.18 851 25.13 7.8 46 81 4.7 40.5 8.17 0.322
22:03 1022 30.18 851 25.13 7.8 46.1 81 4.8 40.6 8.19 0.322
22:04 1022 30.18 851 25.13 7.9 46.2 78 4.3 39.7 8.22 0.324
22:05 1022 30.18 851 25.13 8.1 46.5 74 3.8 38.8 8.3 0.327
22:06 1022 30.18 851 25.13 8.3 46.9 73 3.8 38.9 8.54 0.336
22:07 1022 30.18 851 25.13 8.5 47.2 73 3.8 38.9 8.72 0.343
22:08 1022 30.18 851 25.13 8.6 47.5 71 3.6 38.6 8.87 0.349
22:09 1022 30.18 851 25.13 8.8 47.8 71 3.9 39 9 0.354
22:10 1022 30.18 851 25.13 8.9 47.9 70 3.7 38.6 9.13 0.359
22:11 1022 30.18 851 25.13 8.8 47.9 70 3.6 38.5 9.17 0.361
22:12 1022 30.18 851 25.13 9 48.1 68 3.4 38.1 9.21 0.363
22:13 1022 30.18 851 25.13 9.1 48.3 69 3.7 38.6 9.35 0.368
22:14 1022 30.18 851 25.13 9.1 48.3 69 3.7 38.6 9.42 0.371
22:15 1022 30.18 851 25.13 9.1 48.4 69 3.7 38.7 9.43 0.371
22:16 1022 30.18 851 25.13 9.2 48.5 69 3.8 38.9 9.46 0.372
22:17 1022 30.18 851 25.13 9.2 48.5 68 3.7 38.6 9.54 0.376
22:18 1022 30.18 851 25.13 9.2 48.5 68 3.6 38.5 9.5 0.374
22:19 1022 30.18 851 25.13 9.3 48.8 68 3.8 38.8 9.59 0.378
22:20 1022 30.18 851 25.13 9.3 48.8 70 4.1 39.3 9.67 0.381
22:21 1022 30.18 851 25.13 9.2 48.5 71 4.2 39.5 9.65 0.38
22:22 1022 30.18 851 25.13 9.1 48.4 72 4.4 39.9 9.52 0.375
22:23 1022 30.18 851 25.13 9 48.3 72 4.2 39.6 9.46 0.372
22:24 1022 30.18 851 25.13 9 48.2 72 4.1 39.5 9.37 0.369
22:25 1022 30.18 851 25.13 9 48.1 70 3.9 39 9.34 0.368
22:26 1022 30.18 851 25.13 9 48.3 71 4.1 39.3 9.39 0.37
22:27 1022 30.18 851 25.13 9.1 48.3 71 4.1 39.4 9.45 0.372
22:28 1022 30.18 851 25.13 9 48.3 72 4.2 39.5 9.43 0.371
22:29 1022 30.18 851 25.13 9 48.3 72 4.3 39.8 9.41 0.37
22:30 1022 30.18 851 25.13 9 48.2 70 3.9 38.9 9.39 0.37
22:31 1022 30.18 851 25.13 9 48.3 71 4.2 39.5 9.37 0.369
22:32 1022 30.18 851 25.13 9 48.3 72 4.2 39.5 9.43 0.371
22:33 1022 30.18 851 25.13 9 48.2 73 4.4 39.9 9.4 0.37
22:34 1022 30.18 851 25.13 9 48.2 72 4.2 39.6 9.37 0.369
22:35 1022 30.18 851 25.13 9 48.1 73 4.4 40 9.37 0.369
22:36 1022 30.18 851 25.13 9 48.1 73 4.4 40 9.34 0.368
22:37 1022 30.18 851 25.13 9 48.1 72 4.2 39.6 9.32 0.367
22:38 1022 30.18 851 25.13 9 48.2 73 4.4 39.8 9.37 0.369
22:39 1022 30.18 851 25.13 9 48.2 74 4.6 40.3 9.4 0.37
22:40 1022 30.18 851 25.13 8.9 48.1 73 4.4 39.9 9.4 0.37
22:41 1022 30.18 851 25.13 9 48.1 73 4.4 39.9 9.36 0.369
22:42 1022 30.18 851 25.13 9 48.2 72 4.2 39.5 9.34 0.368
22:43 1022 30.18 851 25.13 9 48.2 72 4.3 39.7 9.38 0.369
22:44 1022 30.18 851 25.13 9 48.3 72 4.2 39.6 9.4 0.37
22:45 1022 30.18 851 25.13 9 48.3 71 4.2 39.5 9.44 0.372
22:46 1022 30.18 851 25.13 9 48.3 71 4 39.2 9.4 0.37
22:47 1022 30.18 851 25.13 9.1 48.3 70 4 39.2 9.41 0.37
22:48 1022 30.18 851 25.13 9.1 48.4 69 3.9 38.9 9.47 0.373
22:49 1022 30.18 851 25.13 9.2 48.6 70 4.1 39.3 9.55 0.376
22:50 1022 30.18 851 25.13 9.3 48.7 70 4.1 39.3 9.61 0.378
22:51 1022 30.18 851 25.13 9.3 48.7 68 3.8 38.8 9.62 0.379
22:52 1022 30.18 851 25.13 9.3 48.8 68 3.7 38.6 9.67 0.381
22:53 1022 30.18 851 25.13 9.4 48.9 69 4.1 39.3 9.74 0.383
22:54 1022 30.18 851 25.13 9.4 48.8 70 4.1 39.5 9.76 0.384
22:55 1022 30.18 851 25.13 9.3 48.8 70 4.2 39.5 9.73 0.383
22:56 1022 30.18 851 25.13 9.3 48.7 70 4.1 39.4 9.68 0.381
22:57 1022 30.18 851 25.13 9.3 48.7 70 4 39.2 9.63 0.379
22:58 1022 30.18 851 25.13 9.3 48.7 69 4 39.1 9.61 0.378
22:59 1022 30.18 851 25.13 9.2 48.6 70 4.1 39.4 9.62 0.379
23:00 1022 30.18 851 25.13 9.2 48.6 70 4 39.2 9.59 0.378
23:01 1022 30.18 851 25.13 9.2 48.5 71 4.2 39.6 9.54 0.376
23:02 1022 30.18 851 25.13 9.2 48.5 70 3.9 39.1 9.53 0.375
23:03 1022 30.18 851 25.13 9.2 48.5 68 3.6 38.5 9.55 0.376
23:04 1022 30.18 851 25.13 9.3 48.7 68 3.6 38.5 9.58 0.377
23:05 1022 30.18 851 25.13 9.3 48.7 70 4.1 39.3 9.64 0.38
23:06 1022 30.18 851 25.13 9.3 48.7 69 3.9 39.1 9.67 0.381
23:07 1022 30.18 851 25.13 9.3 48.7 69 3.8 38.9 9.64 0.38
23:08 1022 30.18 851 25.13 9.3 48.7 67 3.5 38.3 9.64 0.38
23:09 1022 30.18 851 25.13 9.3 48.8 68 3.7 38.7 9.71 0.382
23:10 1022 30.18 851 25.13 9.5 49 64 3 37.5 9.79 0.385
23:11 1022 30.18 851 25.13 9.7 49.4 65 3.5 38.4 9.97 0.393
23:12 1022 30.18 851 25.13 9.6 49.4 64 3.3 37.9 9.99 0.393
23:13 1022 30.18 851 25.13 9.6 49.3 64 3.3 37.9 10 0.394
23:14 1022 30.18 851 25.13 9.7 49.4 65 3.5 38.3 10.03 0.395
23:15 1022 30.18 851 25.13 9.7 49.5 63 3.1 37.6 10.05 0.396
23:16 1022 30.18 851 25.13 9.8 49.6 66 3.7 38.7 10.14 0.399
23:17 1022 30.18 851 25.13 9.7 49.4 68 4.1 39.3 10.11 0.398
23:18 1022 30.18 851 25.13 9.5 49 67 3.7 38.7 9.9 0.39
23:19 1022 30.18 851 25.13 9.4 48.9 67 3.7 38.7 9.8 0.386
23:20 1022 30.18 851 25.13 9.3 48.8 68 3.7 38.7 9.75 0.384
23:21 1022 30.18 851 25.13 9.3 48.8 68 3.9 38.9 9.7 0.382
23:22 1022 30.18 851 25.13 9.3 48.7 68 3.8 38.8 9.66 0.38
23:23 1022 30.18 851 25.13 9.2 48.6 68 3.6 38.4 9.6 0.378
23:24 1022 30.18 851 25.13 9.1 48.4 70 4 39.1 9.55 0.376
23:25 1022 30.18 851 25.13 9 48.2 70 3.8 38.9 9.47 0.373
23:26 1022 30.18 851 25.13 8.9 48.1 70 3.8 38.8 9.38 0.369
23:27 1022 30.18 851 25.13 8.9 48.1 68 3.3 37.9 9.32 0.367
23:28 1022 30.18 851 25.13 9 48.2 69 3.6 38.6 9.37 0.369
23:29 1022 30.18 851 25.13 9 48.3 69 3.6 38.4 9.41 0.37
23:30 1022 30.18 851 25.13 9.1 48.3 68 3.5 38.4 9.42 0.371
23:31 1022 30.18 851 25.13 9 48.3 67 3.3 38 9.47 0.373
23:32 1022 30.18 851 25.13 9.1 48.4 66 3.1 37.7 9.45 0.372
23:33 1022 30.18 851 25.13 9.2 48.6 67 3.4 38.1 9.56 0.376
23:34 1022 30.18 851 25.13 9.2 48.5 67 3.4 38.2 9.56 0.376
23:35 1022 30.18 851 25.13 9.2 48.5 68 3.6 38.5 9.55 0.376
23:36 1022 30.18 851 25.13 9.1 48.4 70 3.9 39 9.51 0.374
23:37 1022 30.18 851 25.13 8.9 48.1 69 3.7 38.6 9.42 0.371
23:38 1022 30.18 851 25.13 8.9 48.1 70 3.8 38.8 9.34 0.368
23:39 1022 30.18 851 25.13 8.9 48 70 3.8 38.9 9.27 0.365
23:40 1022 30.18 851 25.13 8.8 47.8 71 3.9 39 9.17 0.361
23:41 1022 30.18 851 25.13 8.7 47.7 72 3.9 39.1 9.15 0.36
23:42 1022 30.18 851 25.13 8.7 47.6 73 4 39.3 9.06 0.357
23:43 1022 30.18 851 25.13 8.5 47.4 72 3.7 38.7 9.01 0.355
23:44 1022 30.18 852 25.16 8.5 47.4 72 3.9 39 8.95 0.352
23:45 1022 30.18 851 25.13 8.5 47.3 72 3.8 38.8 8.93 0.352
23:46 1022 30.18 852 25.16 8.5 47.3 72 3.8 38.8 8.92 0.351
23:47 1022 30.18 852 25.16 8.4 47.2 73 3.9 39 8.89 0.35
23:48 1022 30.18 852 25.16 8.4 47.2 73 3.8 38.9 8.87 0.349
23:49 1022 30.18 852 25.16 8.4 47.1 74 4 39.2 8.81 0.347
23:50 1022 30.18 852 25.16 8.4 47 74 4 39.2 8.75 0.344
23:51 1022 30.18 852 25.16 8.3 46.9 75 4.1 39.3 8.73 0.344
23:52 1022 30.18 852 25.16 8.2 46.8 75 4.1 39.4 8.64 0.34
23:53 1022 30.18 852 25.16 8.1 46.6 75 4 39.2 8.59 0.338
23:54 1022 30.18 852 25.16 8.1 46.5 74 3.7 38.7 8.54 0.336
23:55 1022 30.18 852 25.16 8.1 46.6 74 3.8 38.9 8.52 0.335
23:56 1022 30.18 852 25.16 8.2 46.7 74 3.8 38.9 8.58 0.338
23:57 1022 30.18 852 25.16 8.2 46.8 74 3.8 38.9 8.61 0.339
23:58 1022 30.18 852 25.16 8.2 46.8 74 3.9 39 8.59 0.338
23:59 1022 30.18 852 25.16 8.2 46.8 75 4 39.2 8.62 0.339
24:00 1022 30.18 852 25.16 8.2 46.8 74 4 39.1 8.61 0.339